<?xml version="1.0" encoding="UTF-8" standalone="no" ?><gpx xmlns="http://www.topografix.com/GPX/1/1" xmlns:gpxx="http://www.garmin.com/xmlschemas/GpxExtensions/v3" xmlns:wptx1="http://www.garmin.com/xmlschemas/WaypointExtension/v1" xmlns:gpxtpx="http://www.garmin.com/xmlschemas/TrackPointExtension/v1" creator="GuideVTT.com" version="1.1" xmlns:xsi="http://www.w3.org/2001/XMLSchema-instance" xsi:schemaLocation="http://www.topografix.com/GPX/1/1 http://www.topografix.com/GPX/1/1/gpx.xsd http://www.garmin.com/xmlschemas/GpxExtensions/v3 http://www8.garmin.com/xmlschemas/GpxExtensionsv3.xsd http://www.garmin.com/xmlschemas/WaypointExtension/v1 http://www8.garmin.com/xmlschemas/WaypointExtensionv1.xsd http://www.garmin.com/xmlschemas/TrackPointExtension/v1 http://www.garmin.com/xmlschemas/TrackPointExtensionv1.xsd">
<metadata><link href="http://www.garmin.com"><text>Garmin International</text></link><time>2013-06-22T15:13:50Z</time></metadata>
<trk><name>2013-04-28-02.gpx</name><extensions><gpxx:TrackExtension><gpxx:DisplayColor>Cyan</gpxx:DisplayColor></gpxx:TrackExtension></extensions><trkseg>
<trkpt lat="48.534030150" lon="2.445230140"><ele></ele><time>2013-8-28T15:36:9Z</time></trkpt>
<trkpt lat="48.534113460" lon="2.445205000"><ele></ele><time>2013-8-28T15:36:12Z</time></trkpt>
<trkpt lat="48.534175150" lon="2.445135090"><ele></ele><time>2013-8-28T15:36:15Z</time></trkpt>
<trkpt lat="48.534180010" lon="2.445093350"><ele></ele><time>2013-8-28T15:36:18Z</time></trkpt>
<trkpt lat="48.534206670" lon="2.444973490"><ele></ele><time>2013-8-28T15:36:21Z</time></trkpt>
<trkpt lat="48.534223430" lon="2.444905090"><ele></ele><time>2013-8-28T15:36:24Z</time></trkpt>
<trkpt lat="48.534241700" lon="2.444838370"><ele></ele><time>2013-8-28T15:36:27Z</time></trkpt>
<trkpt lat="48.534256790" lon="2.444771820"><ele></ele><time>2013-8-28T15:36:30Z</time></trkpt>
<trkpt lat="48.534280090" lon="2.444701750"><ele></ele><time>2013-8-28T15:36:33Z</time></trkpt>
<trkpt lat="48.534301720" lon="2.444628490"><ele></ele><time>2013-8-28T15:36:36Z</time></trkpt>
<trkpt lat="48.534325020" lon="2.444570150"><ele></ele><time>2013-8-28T15:36:39Z</time></trkpt>
<trkpt lat="48.534361730" lon="2.444505110"><ele></ele><time>2013-8-28T15:36:42Z</time></trkpt>
<trkpt lat="48.534386710" lon="2.444385080"><ele></ele><time>2013-8-28T15:36:45Z</time></trkpt>
<trkpt lat="48.534351680" lon="2.444330090"><ele></ele><time>2013-8-28T15:36:48Z</time></trkpt>
<trkpt lat="48.534300040" lon="2.444313330"><ele></ele><time>2013-8-28T15:36:51Z</time></trkpt>
<trkpt lat="48.534245060" lon="2.444311820"><ele></ele><time>2013-8-28T15:36:54Z</time></trkpt>
<trkpt lat="48.534191750" lon="2.444303440"><ele></ele><time>2013-8-28T15:36:57Z</time></trkpt>
<trkpt lat="48.534133410" lon="2.444286680"><ele></ele><time>2013-8-28T15:37:0Z</time></trkpt>
<trkpt lat="48.534078430" lon="2.444265050"><ele></ele><time>2013-8-28T15:37:3Z</time></trkpt>
<trkpt lat="48.534021760" lon="2.444243430"><ele></ele><time>2013-8-28T15:37:6Z</time></trkpt>
<trkpt lat="48.533966780" lon="2.444223480"><ele></ele><time>2013-8-28T15:37:9Z</time></trkpt>
<trkpt lat="48.533910120" lon="2.444203360"><ele></ele><time>2013-8-28T15:37:12Z</time></trkpt>
<trkpt lat="48.533855130" lon="2.444178380"><ele></ele><time>2013-8-28T15:37:15Z</time></trkpt>
<trkpt lat="48.533800150" lon="2.444150050"><ele></ele><time>2013-8-28T15:37:18Z</time></trkpt>
<trkpt lat="48.533746670" lon="2.444115020"><ele></ele><time>2013-8-28T15:37:21Z</time></trkpt>
<trkpt lat="48.533695040" lon="2.444075120"><ele></ele><time>2013-8-28T15:37:24Z</time></trkpt>
<trkpt lat="48.533665030" lon="2.444011750"><ele></ele><time>2013-8-28T15:37:27Z</time></trkpt>
<trkpt lat="48.533663350" lon="2.443928430"><ele></ele><time>2013-8-28T15:37:30Z</time></trkpt>
<trkpt lat="48.533676760" lon="2.443841770"><ele></ele><time>2013-8-28T15:37:33Z</time></trkpt>
<trkpt lat="48.533693360" lon="2.443758450"><ele></ele><time>2013-8-28T15:37:36Z</time></trkpt>
<trkpt lat="48.533710120" lon="2.443676810"><ele></ele><time>2013-8-28T15:37:39Z</time></trkpt>
<trkpt lat="48.533728400" lon="2.443590140"><ele></ele><time>2013-8-28T15:37:42Z</time></trkpt>
<trkpt lat="48.533743480" lon="2.443506820"><ele></ele><time>2013-8-28T15:37:45Z</time></trkpt>
<trkpt lat="48.533761760" lon="2.443425020"><ele></ele><time>2013-8-28T15:37:48Z</time></trkpt>
<trkpt lat="48.533780030" lon="2.443343380"><ele></ele><time>2013-8-28T15:37:51Z</time></trkpt>
<trkpt lat="48.533798470" lon="2.443263410"><ele></ele><time>2013-8-28T15:37:54Z</time></trkpt>
<trkpt lat="48.533818420" lon="2.443181770"><ele></ele><time>2013-8-28T15:37:57Z</time></trkpt>
<trkpt lat="48.533840040" lon="2.443100130"><ele></ele><time>2013-8-28T15:38:0Z</time></trkpt>
<trkpt lat="48.533858480" lon="2.443016820"><ele></ele><time>2013-8-28T15:38:3Z</time></trkpt>
<trkpt lat="48.533876760" lon="2.442933330"><ele></ele><time>2013-8-28T15:38:6Z</time></trkpt>
<trkpt lat="48.533896710" lon="2.442850020"><ele></ele><time>2013-8-28T15:38:9Z</time></trkpt>
<trkpt lat="48.533915150" lon="2.442768380"><ele></ele><time>2013-8-28T15:38:12Z</time></trkpt>
<trkpt lat="48.533928390" lon="2.442683390"><ele></ele><time>2013-8-28T15:38:15Z</time></trkpt>
<trkpt lat="48.533945150" lon="2.442601750"><ele></ele><time>2013-8-28T15:38:18Z</time></trkpt>
<trkpt lat="48.533968450" lon="2.442520110"><ele></ele><time>2013-8-28T15:38:21Z</time></trkpt>
<trkpt lat="48.533978350" lon="2.442436790"><ele></ele><time>2013-8-28T15:38:24Z</time></trkpt>
<trkpt lat="48.533995110" lon="2.442356830"><ele></ele><time>2013-8-28T15:38:27Z</time></trkpt>
<trkpt lat="48.534013380" lon="2.442273340"><ele></ele><time>2013-8-28T15:38:30Z</time></trkpt>
<trkpt lat="48.534033330" lon="2.442190030"><ele></ele><time>2013-8-28T15:38:33Z</time></trkpt>
<trkpt lat="48.534050090" lon="2.442106710"><ele></ele><time>2013-8-28T15:38:36Z</time></trkpt>
<trkpt lat="48.534065010" lon="2.442023400"><ele></ele><time>2013-8-28T15:38:39Z</time></trkpt>
<trkpt lat="48.534083450" lon="2.441943430"><ele></ele><time>2013-8-28T15:38:42Z</time></trkpt>
<trkpt lat="48.534100050" lon="2.441860120"><ele></ele><time>2013-8-28T15:38:45Z</time></trkpt>
<trkpt lat="48.534118490" lon="2.441776800"><ele></ele><time>2013-8-28T15:38:48Z</time></trkpt>
<trkpt lat="48.534133410" lon="2.441693480"><ele></ele><time>2013-8-28T15:38:51Z</time></trkpt>
<trkpt lat="48.534150010" lon="2.441611680"><ele></ele><time>2013-8-28T15:38:54Z</time></trkpt>
<trkpt lat="48.534166770" lon="2.441528360"><ele></ele><time>2013-8-28T15:38:57Z</time></trkpt>
<trkpt lat="48.534186720" lon="2.441445040"><ele></ele><time>2013-8-28T15:39:0Z</time></trkpt>
<trkpt lat="48.534205160" lon="2.441361730"><ele></ele><time>2013-8-28T15:39:3Z</time></trkpt>
<trkpt lat="48.534223430" lon="2.441280090"><ele></ele><time>2013-8-28T15:39:6Z</time></trkpt>
<trkpt lat="48.534243380" lon="2.441198450"><ele></ele><time>2013-8-28T15:39:9Z</time></trkpt>
<trkpt lat="48.534266680" lon="2.441118480"><ele></ele><time>2013-8-28T15:39:12Z</time></trkpt>
<trkpt lat="48.534286800" lon="2.441036680"><ele></ele><time>2013-8-28T15:39:15Z</time></trkpt>
<trkpt lat="48.534305070" lon="2.440953360"><ele></ele><time>2013-8-28T15:39:18Z</time></trkpt>
<trkpt lat="48.534325020" lon="2.440873400"><ele></ele><time>2013-8-28T15:39:21Z</time></trkpt>
<trkpt lat="48.534343460" lon="2.440793430"><ele></ele><time>2013-8-28T15:39:24Z</time></trkpt>
<trkpt lat="48.534360060" lon="2.440715150"><ele></ele><time>2013-8-28T15:39:27Z</time></trkpt>
<trkpt lat="48.534373470" lon="2.440633340"><ele></ele><time>2013-8-28T15:39:30Z</time></trkpt>
<trkpt lat="48.534385040" lon="2.440551700"><ele></ele><time>2013-8-28T15:39:33Z</time></trkpt>
<trkpt lat="48.534398450" lon="2.440468380"><ele></ele><time>2013-8-28T15:39:36Z</time></trkpt>
<trkpt lat="48.534413370" lon="2.440386740"><ele></ele><time>2013-8-28T15:39:39Z</time></trkpt>
<trkpt lat="48.534426780" lon="2.440303430"><ele></ele><time>2013-8-28T15:39:42Z</time></trkpt>
<trkpt lat="48.534440020" lon="2.440218440"><ele></ele><time>2013-8-28T15:39:45Z</time></trkpt>
<trkpt lat="48.534458460" lon="2.440135120"><ele></ele><time>2013-8-28T15:39:48Z</time></trkpt>
<trkpt lat="48.534478410" lon="2.440051800"><ele></ele><time>2013-8-28T15:39:51Z</time></trkpt>
<trkpt lat="48.534500040" lon="2.439970000"><ele></ele><time>2013-8-28T15:39:54Z</time></trkpt>
<trkpt lat="48.534508420" lon="2.439890030"><ele></ele><time>2013-8-28T15:39:57Z</time></trkpt>
<trkpt lat="48.534523340" lon="2.439805040"><ele></ele><time>2013-8-28T15:40:0Z</time></trkpt>
<trkpt lat="48.534541780" lon="2.439720050"><ele></ele><time>2013-8-28T15:40:3Z</time></trkpt>
<trkpt lat="48.534568430" lon="2.439641760"><ele></ele><time>2013-8-28T15:40:6Z</time></trkpt>
<trkpt lat="48.534605140" lon="2.439578390"><ele></ele><time>2013-8-28T15:40:9Z</time></trkpt>
<trkpt lat="48.534646720" lon="2.439535140"><ele></ele><time>2013-8-28T15:40:12Z</time></trkpt>
<trkpt lat="48.534701700" lon="2.439515030"><ele></ele><time>2013-8-28T15:40:15Z</time></trkpt>
<trkpt lat="48.534756690" lon="2.439518380"><ele></ele><time>2013-8-28T15:40:18Z</time></trkpt>
<trkpt lat="48.534810000" lon="2.439541680"><ele></ele><time>2013-8-28T15:40:21Z</time></trkpt>
<trkpt lat="48.534863470" lon="2.439568340"><ele></ele><time>2013-8-28T15:40:24Z</time></trkpt>
<trkpt lat="48.534918460" lon="2.439593480"><ele></ele><time>2013-8-28T15:40:27Z</time></trkpt>
<trkpt lat="48.534971770" lon="2.439616780"><ele></ele><time>2013-8-28T15:40:30Z</time></trkpt>
<trkpt lat="48.535023400" lon="2.439640080"><ele></ele><time>2013-8-28T15:40:33Z</time></trkpt>
<trkpt lat="48.535075030" lon="2.439663390"><ele></ele><time>2013-8-28T15:40:36Z</time></trkpt>
<trkpt lat="48.535125160" lon="2.439685010"><ele></ele><time>2013-8-28T15:40:39Z</time></trkpt>
<trkpt lat="48.535176790" lon="2.439705130"><ele></ele><time>2013-8-28T15:40:42Z</time></trkpt>
<trkpt lat="48.535228420" lon="2.439723400"><ele></ele><time>2013-8-28T15:40:45Z</time></trkpt>
<trkpt lat="48.535280060" lon="2.439741670"><ele></ele><time>2013-8-28T15:40:48Z</time></trkpt>
<trkpt lat="48.535330010" lon="2.439758440"><ele></ele><time>2013-8-28T15:40:51Z</time></trkpt>
<trkpt lat="48.535381810" lon="2.439775030"><ele></ele><time>2013-8-28T15:40:54Z</time></trkpt>
<trkpt lat="48.535431770" lon="2.439800010"><ele></ele><time>2013-8-28T15:40:57Z</time></trkpt>
<trkpt lat="48.535473340" lon="2.439850140"><ele></ele><time>2013-8-28T15:41:0Z</time></trkpt>
<trkpt lat="48.535506700" lon="2.439908470"><ele></ele><time>2013-8-28T15:41:3Z</time></trkpt>
<trkpt lat="48.535533360" lon="2.440015090"><ele></ele><time>2013-8-28T15:41:6Z</time></trkpt>
<trkpt lat="48.535575100" lon="2.440115000"><ele></ele><time>2013-8-28T15:41:9Z</time></trkpt>
<trkpt lat="48.535648360" lon="2.440181720"><ele></ele><time>2013-8-28T15:41:12Z</time></trkpt>
<trkpt lat="48.535688420" lon="2.440215080"><ele></ele><time>2013-8-28T15:41:15Z</time></trkpt>
<trkpt lat="48.535731670" lon="2.440241740"><ele></ele><time>2013-8-28T15:41:18Z</time></trkpt>
<trkpt lat="48.535775090" lon="2.440268390"><ele></ele><time>2013-8-28T15:41:21Z</time></trkpt>
<trkpt lat="48.535820020" lon="2.440290020"><ele></ele><time>2013-8-28T15:41:24Z</time></trkpt>
<trkpt lat="48.535868460" lon="2.440310130"><ele></ele><time>2013-8-28T15:41:27Z</time></trkpt>
<trkpt lat="48.535913390" lon="2.440330080"><ele></ele><time>2013-8-28T15:41:30Z</time></trkpt>
<trkpt lat="48.535961670" lon="2.440350030"><ele></ele><time>2013-8-28T15:41:33Z</time></trkpt>
<trkpt lat="48.536010120" lon="2.440363440"><ele></ele><time>2013-8-28T15:41:36Z</time></trkpt>
<trkpt lat="48.536058400" lon="2.440376690"><ele></ele><time>2013-8-28T15:41:39Z</time></trkpt>
<trkpt lat="48.536106680" lon="2.440396800"><ele></ele><time>2013-8-28T15:41:42Z</time></trkpt>
<trkpt lat="48.536153450" lon="2.440416750"><ele></ele><time>2013-8-28T15:41:45Z</time></trkpt>
<trkpt lat="48.536201730" lon="2.440438380"><ele></ele><time>2013-8-28T15:41:48Z</time></trkpt>
<trkpt lat="48.536250010" lon="2.440458490"><ele></ele><time>2013-8-28T15:41:51Z</time></trkpt>
<trkpt lat="48.536296780" lon="2.440480120"><ele></ele><time>2013-8-28T15:41:54Z</time></trkpt>
<trkpt lat="48.536343380" lon="2.440500070"><ele></ele><time>2013-8-28T15:41:57Z</time></trkpt>
<trkpt lat="48.536390150" lon="2.440520020"><ele></ele><time>2013-8-28T15:42:0Z</time></trkpt>
<trkpt lat="48.536438430" lon="2.440541810"><ele></ele><time>2013-8-28T15:42:3Z</time></trkpt>
<trkpt lat="48.536485040" lon="2.440563440"><ele></ele><time>2013-8-28T15:42:6Z</time></trkpt>
<trkpt lat="48.536533480" lon="2.440583380"><ele></ele><time>2013-8-28T15:42:9Z</time></trkpt>
<trkpt lat="48.536581760" lon="2.440605010"><ele></ele><time>2013-8-28T15:42:12Z</time></trkpt>
<trkpt lat="48.536628370" lon="2.440628480"><ele></ele><time>2013-8-28T15:42:15Z</time></trkpt>
<trkpt lat="48.536676820" lon="2.440650100"><ele></ele><time>2013-8-28T15:42:18Z</time></trkpt>
<trkpt lat="48.536723420" lon="2.440671730"><ele></ele><time>2013-8-28T15:42:21Z</time></trkpt>
<trkpt lat="48.536770020" lon="2.440693350"><ele></ele><time>2013-8-28T15:42:24Z</time></trkpt>
<trkpt lat="48.536818470" lon="2.440716820"><ele></ele><time>2013-8-28T15:42:27Z</time></trkpt>
<trkpt lat="48.536865070" lon="2.440738450"><ele></ele><time>2013-8-28T15:42:30Z</time></trkpt>
<trkpt lat="48.536911680" lon="2.440761750"><ele></ele><time>2013-8-28T15:42:33Z</time></trkpt>
<trkpt lat="48.536958450" lon="2.440785050"><ele></ele><time>2013-8-28T15:42:36Z</time></trkpt>
<trkpt lat="48.537003370" lon="2.440801820"><ele></ele><time>2013-8-28T15:42:39Z</time></trkpt>
<trkpt lat="48.537050150" lon="2.440821770"><ele></ele><time>2013-8-28T15:42:42Z</time></trkpt>
<trkpt lat="48.537095070" lon="2.440843390"><ele></ele><time>2013-8-28T15:42:45Z</time></trkpt>
<trkpt lat="48.537143350" lon="2.440865020"><ele></ele><time>2013-8-28T15:42:48Z</time></trkpt>
<trkpt lat="48.537190120" lon="2.440888490"><ele></ele><time>2013-8-28T15:42:51Z</time></trkpt>
<trkpt lat="48.537238400" lon="2.440910110"><ele></ele><time>2013-8-28T15:42:54Z</time></trkpt>
<trkpt lat="48.537285010" lon="2.440930060"><ele></ele><time>2013-8-28T15:42:57Z</time></trkpt>
<trkpt lat="48.537330100" lon="2.440951690"><ele></ele><time>2013-8-28T15:43:0Z</time></trkpt>
<trkpt lat="48.537376700" lon="2.440973480"><ele></ele><time>2013-8-28T15:43:3Z</time></trkpt>
<trkpt lat="48.537421800" lon="2.440993430"><ele></ele><time>2013-8-28T15:43:6Z</time></trkpt>
<trkpt lat="48.537466730" lon="2.441016730"><ele></ele><time>2013-8-28T15:43:9Z</time></trkpt>
<trkpt lat="48.537513330" lon="2.441036680"><ele></ele><time>2013-8-28T15:43:12Z</time></trkpt>
<trkpt lat="48.537560100" lon="2.441058470"><ele></ele><time>2013-8-28T15:43:15Z</time></trkpt>
<trkpt lat="48.537605030" lon="2.441080100"><ele></ele><time>2013-8-28T15:43:18Z</time></trkpt>
<trkpt lat="48.537650120" lon="2.441101720"><ele></ele><time>2013-8-28T15:43:21Z</time></trkpt>
<trkpt lat="48.537695050" lon="2.441125020"><ele></ele><time>2013-8-28T15:43:24Z</time></trkpt>
<trkpt lat="48.537741820" lon="2.441146820"><ele></ele><time>2013-8-28T15:43:27Z</time></trkpt>
<trkpt lat="48.537786750" lon="2.441171790"><ele></ele><time>2013-8-28T15:43:30Z</time></trkpt>
<trkpt lat="48.537831670" lon="2.441196770"><ele></ele><time>2013-8-28T15:43:33Z</time></trkpt>
<trkpt lat="48.537876770" lon="2.441226780"><ele></ele><time>2013-8-28T15:43:36Z</time></trkpt>
<trkpt lat="48.537921700" lon="2.441256790"><ele></ele><time>2013-8-28T15:43:39Z</time></trkpt>
<trkpt lat="48.537963440" lon="2.441291820"><ele></ele><time>2013-8-28T15:43:42Z</time></trkpt>
<trkpt lat="48.538006690" lon="2.441326690"><ele></ele><time>2013-8-28T15:43:45Z</time></trkpt>
<trkpt lat="48.538046750" lon="2.441368430"><ele></ele><time>2013-8-28T15:43:48Z</time></trkpt>
<trkpt lat="48.538086820" lon="2.441411680"><ele></ele><time>2013-8-28T15:43:51Z</time></trkpt>
<trkpt lat="48.538123360" lon="2.441455100"><ele></ele><time>2013-8-28T15:43:54Z</time></trkpt>
<trkpt lat="48.538160080" lon="2.441501710"><ele></ele><time>2013-8-28T15:43:57Z</time></trkpt>
<trkpt lat="48.538196790" lon="2.441546800"><ele></ele><time>2013-8-28T15:44:0Z</time></trkpt>
<trkpt lat="48.538233330" lon="2.441591730"><ele></ele><time>2013-8-28T15:44:3Z</time></trkpt>
<trkpt lat="48.538270050" lon="2.441638330"><ele></ele><time>2013-8-28T15:44:6Z</time></trkpt>
<trkpt lat="48.538308440" lon="2.441681750"><ele></ele><time>2013-8-28T15:44:9Z</time></trkpt>
<trkpt lat="48.538345150" lon="2.441725000"><ele></ele><time>2013-8-28T15:44:12Z</time></trkpt>
<trkpt lat="48.538381690" lon="2.441768420"><ele></ele><time>2013-8-28T15:44:15Z</time></trkpt>
<trkpt lat="48.538420080" lon="2.441811670"><ele></ele><time>2013-8-28T15:44:18Z</time></trkpt>
<trkpt lat="48.538456800" lon="2.441858440"><ele></ele><time>2013-8-28T15:44:21Z</time></trkpt>
<trkpt lat="48.538496690" lon="2.441900010"><ele></ele><time>2013-8-28T15:44:24Z</time></trkpt>
<trkpt lat="48.538535080" lon="2.441940080"><ele></ele><time>2013-8-28T15:44:27Z</time></trkpt>
<trkpt lat="48.538573470" lon="2.441980140"><ele></ele><time>2013-8-28T15:44:30Z</time></trkpt>
<trkpt lat="48.538608340" lon="2.442021720"><ele></ele><time>2013-8-28T15:44:33Z</time></trkpt>
<trkpt lat="48.538645050" lon="2.442065140"><ele></ele><time>2013-8-28T15:44:36Z</time></trkpt>
<trkpt lat="48.538681770" lon="2.442106710"><ele></ele><time>2013-8-28T15:44:39Z</time></trkpt>
<trkpt lat="48.538718480" lon="2.442146780"><ele></ele><time>2013-8-28T15:44:42Z</time></trkpt>
<trkpt lat="48.538756700" lon="2.442188350"><ele></ele><time>2013-8-28T15:44:45Z</time></trkpt>
<trkpt lat="48.538793410" lon="2.442230090"><ele></ele><time>2013-8-28T15:44:48Z</time></trkpt>
<trkpt lat="48.538863490" lon="2.442315090"><ele></ele><time>2013-8-28T15:44:51Z</time></trkpt>
<trkpt lat="48.538900030" lon="2.442358340"><ele></ele><time>2013-8-28T15:44:54Z</time></trkpt>
<trkpt lat="48.538938420" lon="2.442401750"><ele></ele><time>2013-8-28T15:44:57Z</time></trkpt>
<trkpt lat="48.538975130" lon="2.442443330"><ele></ele><time>2013-8-28T15:45:0Z</time></trkpt>
<trkpt lat="48.539013350" lon="2.442485070"><ele></ele><time>2013-8-28T15:45:3Z</time></trkpt>
<trkpt lat="48.539051740" lon="2.442526810"><ele></ele><time>2013-8-28T15:45:6Z</time></trkpt>
<trkpt lat="48.539090130" lon="2.442568390"><ele></ele><time>2013-8-28T15:45:9Z</time></trkpt>
<trkpt lat="48.539125000" lon="2.442611800"><ele></ele><time>2013-8-28T15:45:12Z</time></trkpt>
<trkpt lat="48.539163390" lon="2.442653380"><ele></ele><time>2013-8-28T15:45:15Z</time></trkpt>
<trkpt lat="48.539198430" lon="2.442695120"><ele></ele><time>2013-8-28T15:45:18Z</time></trkpt>
<trkpt lat="48.539235140" lon="2.442736700"><ele></ele><time>2013-8-28T15:45:21Z</time></trkpt>
<trkpt lat="48.539271680" lon="2.442776760"><ele></ele><time>2013-8-28T15:45:24Z</time></trkpt>
<trkpt lat="48.539308400" lon="2.442818330"><ele></ele><time>2013-8-28T15:45:27Z</time></trkpt>
<trkpt lat="48.539345110" lon="2.442861750"><ele></ele><time>2013-8-28T15:45:30Z</time></trkpt>
<trkpt lat="48.539381820" lon="2.442908360"><ele></ele><time>2013-8-28T15:45:33Z</time></trkpt>
<trkpt lat="48.539418370" lon="2.442955130"><ele></ele><time>2013-8-28T15:45:36Z</time></trkpt>
<trkpt lat="48.539453400" lon="2.443000050"><ele></ele><time>2013-8-28T15:45:39Z</time></trkpt>
<trkpt lat="48.539486760" lon="2.443050010"><ele></ele><time>2013-8-28T15:45:42Z</time></trkpt>
<trkpt lat="48.539551810" lon="2.443140030"><ele></ele><time>2013-8-28T15:45:45Z</time></trkpt>
<trkpt lat="48.539586680" lon="2.443178420"><ele></ele><time>2013-8-28T15:45:48Z</time></trkpt>
<trkpt lat="48.539626740" lon="2.443216810"><ele></ele><time>2013-8-28T15:45:51Z</time></trkpt>
<trkpt lat="48.539665130" lon="2.443253360"><ele></ele><time>2013-8-28T15:45:54Z</time></trkpt>
<trkpt lat="48.539703350" lon="2.443293420"><ele></ele><time>2013-8-28T15:45:57Z</time></trkpt>
<trkpt lat="48.539740070" lon="2.443333490"><ele></ele><time>2013-8-28T15:46:0Z</time></trkpt>
<trkpt lat="48.539776780" lon="2.443375060"><ele></ele><time>2013-8-28T15:46:3Z</time></trkpt>
<trkpt lat="48.539813490" lon="2.443416800"><ele></ele><time>2013-8-28T15:46:6Z</time></trkpt>
<trkpt lat="48.539848360" lon="2.443460050"><ele></ele><time>2013-8-28T15:46:9Z</time></trkpt>
<trkpt lat="48.539885070" lon="2.443503470"><ele></ele><time>2013-8-28T15:46:12Z</time></trkpt>
<trkpt lat="48.539923460" lon="2.443546720"><ele></ele><time>2013-8-28T15:46:15Z</time></trkpt>
<trkpt lat="48.539960010" lon="2.443588460"><ele></ele><time>2013-8-28T15:46:18Z</time></trkpt>
<trkpt lat="48.539996720" lon="2.443631710"><ele></ele><time>2013-8-28T15:46:21Z</time></trkpt>
<trkpt lat="48.540035110" lon="2.443675130"><ele></ele><time>2013-8-28T15:46:24Z</time></trkpt>
<trkpt lat="48.540071820" lon="2.443716710"><ele></ele><time>2013-8-28T15:46:27Z</time></trkpt>
<trkpt lat="48.540110040" lon="2.443760130"><ele></ele><time>2013-8-28T15:46:30Z</time></trkpt>
<trkpt lat="48.540148430" lon="2.443805050"><ele></ele><time>2013-8-28T15:46:33Z</time></trkpt>
<trkpt lat="48.540186820" lon="2.443846790"><ele></ele><time>2013-8-28T15:46:36Z</time></trkpt>
<trkpt lat="48.540225040" lon="2.443888370"><ele></ele><time>2013-8-28T15:46:39Z</time></trkpt>
<trkpt lat="48.540263430" lon="2.443931790"><ele></ele><time>2013-8-28T15:46:42Z</time></trkpt>
<trkpt lat="48.540300140" lon="2.443975040"><ele></ele><time>2013-8-28T15:46:45Z</time></trkpt>
<trkpt lat="48.540338370" lon="2.444018460"><ele></ele><time>2013-8-28T15:46:48Z</time></trkpt>
<trkpt lat="48.540375080" lon="2.444063380"><ele></ele><time>2013-8-28T15:46:51Z</time></trkpt>
<trkpt lat="48.540411790" lon="2.444106800"><ele></ele><time>2013-8-28T15:46:54Z</time></trkpt>
<trkpt lat="48.540448340" lon="2.444151730"><ele></ele><time>2013-8-28T15:46:57Z</time></trkpt>
<trkpt lat="48.540485050" lon="2.444196820"><ele></ele><time>2013-8-28T15:47:0Z</time></trkpt>
<trkpt lat="48.540521760" lon="2.444240070"><ele></ele><time>2013-8-28T15:47:3Z</time></trkpt>
<trkpt lat="48.540558470" lon="2.444285000"><ele></ele><time>2013-8-28T15:47:6Z</time></trkpt>
<trkpt lat="48.540595020" lon="2.444331770"><ele></ele><time>2013-8-28T15:47:9Z</time></trkpt>
<trkpt lat="48.540631730" lon="2.444380050"><ele></ele><time>2013-8-28T15:47:12Z</time></trkpt>
<trkpt lat="48.540668450" lon="2.444426820"><ele></ele><time>2013-8-28T15:47:15Z</time></trkpt>
<trkpt lat="48.540705160" lon="2.444471750"><ele></ele><time>2013-8-28T15:47:18Z</time></trkpt>
<trkpt lat="48.540741700" lon="2.444521710"><ele></ele><time>2013-8-28T15:47:21Z</time></trkpt>
<trkpt lat="48.540780090" lon="2.444571830"><ele></ele><time>2013-8-28T15:47:24Z</time></trkpt>
<trkpt lat="48.540815130" lon="2.444620110"><ele></ele><time>2013-8-28T15:47:27Z</time></trkpt>
<trkpt lat="48.540848490" lon="2.444668390"><ele></ele><time>2013-8-28T15:47:30Z</time></trkpt>
<trkpt lat="48.540880000" lon="2.444718340"><ele></ele><time>2013-8-28T15:47:33Z</time></trkpt>
<trkpt lat="48.540911690" lon="2.444771820"><ele></ele><time>2013-8-28T15:47:36Z</time></trkpt>
<trkpt lat="48.540943370" lon="2.444825130"><ele></ele><time>2013-8-28T15:47:39Z</time></trkpt>
<trkpt lat="48.540975060" lon="2.444878440"><ele></ele><time>2013-8-28T15:47:42Z</time></trkpt>
<trkpt lat="48.541006740" lon="2.444930070"><ele></ele><time>2013-8-28T15:47:45Z</time></trkpt>
<trkpt lat="48.541041780" lon="2.444978350"><ele></ele><time>2013-8-28T15:47:48Z</time></trkpt>
<trkpt lat="48.541080000" lon="2.445025120"><ele></ele><time>2013-8-28T15:47:51Z</time></trkpt>
<trkpt lat="48.541121740" lon="2.445068370"><ele></ele><time>2013-8-28T15:47:54Z</time></trkpt>
<trkpt lat="48.541161800" lon="2.445110110"><ele></ele><time>2013-8-28T15:47:57Z</time></trkpt>
<trkpt lat="48.541203380" lon="2.445150010"><ele></ele><time>2013-8-28T15:48:0Z</time></trkpt>
<trkpt lat="48.541246800" lon="2.445186730"><ele></ele><time>2013-8-28T15:48:3Z</time></trkpt>
<trkpt lat="48.541290050" lon="2.445221760"><ele></ele><time>2013-8-28T15:48:6Z</time></trkpt>
<trkpt lat="48.541336820" lon="2.445253450"><ele></ele><time>2013-8-28T15:48:9Z</time></trkpt>
<trkpt lat="48.541378390" lon="2.445283450"><ele></ele><time>2013-8-28T15:48:12Z</time></trkpt>
<trkpt lat="48.541425000" lon="2.445305080"><ele></ele><time>2013-8-28T15:48:15Z</time></trkpt>
<trkpt lat="48.541471770" lon="2.445326700"><ele></ele><time>2013-8-28T15:48:18Z</time></trkpt>
<trkpt lat="48.541518370" lon="2.445351680"><ele></ele><time>2013-8-28T15:48:21Z</time></trkpt>
<trkpt lat="48.541565140" lon="2.445376830"><ele></ele><time>2013-8-28T15:48:24Z</time></trkpt>
<trkpt lat="48.541611740" lon="2.445401810"><ele></ele><time>2013-8-28T15:48:27Z</time></trkpt>
<trkpt lat="48.541660020" lon="2.445425110"><ele></ele><time>2013-8-28T15:48:30Z</time></trkpt>
<trkpt lat="48.541710150" lon="2.445450080"><ele></ele><time>2013-8-28T15:48:33Z</time></trkpt>
<trkpt lat="48.541756750" lon="2.445476740"><ele></ele><time>2013-8-28T15:48:36Z</time></trkpt>
<trkpt lat="48.541806710" lon="2.445501720"><ele></ele><time>2013-8-28T15:48:39Z</time></trkpt>
<trkpt lat="48.541858340" lon="2.445528370"><ele></ele><time>2013-8-28T15:48:42Z</time></trkpt>
<trkpt lat="48.541908460" lon="2.445555030"><ele></ele><time>2013-8-28T15:48:45Z</time></trkpt>
<trkpt lat="48.541958420" lon="2.445581680"><ele></ele><time>2013-8-28T15:48:48Z</time></trkpt>
<trkpt lat="48.542010050" lon="2.445608340"><ele></ele><time>2013-8-28T15:48:51Z</time></trkpt>
<trkpt lat="48.542060010" lon="2.445636670"><ele></ele><time>2013-8-28T15:48:54Z</time></trkpt>
<trkpt lat="48.542111810" lon="2.445660140"><ele></ele><time>2013-8-28T15:48:57Z</time></trkpt>
<trkpt lat="48.542161770" lon="2.445685110"><ele></ele><time>2013-8-28T15:49:0Z</time></trkpt>
<trkpt lat="48.542213400" lon="2.445710090"><ele></ele><time>2013-8-28T15:49:3Z</time></trkpt>
<trkpt lat="48.542265030" lon="2.445733390"><ele></ele><time>2013-8-28T15:49:6Z</time></trkpt>
<trkpt lat="48.542316660" lon="2.445758370"><ele></ele><time>2013-8-28T15:49:9Z</time></trkpt>
<trkpt lat="48.542370140" lon="2.445783350"><ele></ele><time>2013-8-28T15:49:12Z</time></trkpt>
<trkpt lat="48.542421770" lon="2.445810000"><ele></ele><time>2013-8-28T15:49:15Z</time></trkpt>
<trkpt lat="48.542473400" lon="2.445835150"><ele></ele><time>2013-8-28T15:49:18Z</time></trkpt>
<trkpt lat="48.542525040" lon="2.445860130"><ele></ele><time>2013-8-28T15:49:21Z</time></trkpt>
<trkpt lat="48.542578350" lon="2.445886780"><ele></ele><time>2013-8-28T15:49:24Z</time></trkpt>
<trkpt lat="48.542628470" lon="2.445915110"><ele></ele><time>2013-8-28T15:49:27Z</time></trkpt>
<trkpt lat="48.542680100" lon="2.445941770"><ele></ele><time>2013-8-28T15:49:30Z</time></trkpt>
<trkpt lat="48.542730060" lon="2.445968420"><ele></ele><time>2013-8-28T15:49:33Z</time></trkpt>
<trkpt lat="48.542781690" lon="2.445996750"><ele></ele><time>2013-8-28T15:49:36Z</time></trkpt>
<trkpt lat="48.542833490" lon="2.446021730"><ele></ele><time>2013-8-28T15:49:39Z</time></trkpt>
<trkpt lat="48.542885120" lon="2.446046710"><ele></ele><time>2013-8-28T15:49:42Z</time></trkpt>
<trkpt lat="48.542936760" lon="2.446073360"><ele></ele><time>2013-8-28T15:49:45Z</time></trkpt>
<trkpt lat="48.542988390" lon="2.446100020"><ele></ele><time>2013-8-28T15:49:48Z</time></trkpt>
<trkpt lat="48.543040020" lon="2.446128350"><ele></ele><time>2013-8-28T15:49:51Z</time></trkpt>
<trkpt lat="48.543095010" lon="2.446158360"><ele></ele><time>2013-8-28T15:49:54Z</time></trkpt>
<trkpt lat="48.543145130" lon="2.446186690"><ele></ele><time>2013-8-28T15:49:57Z</time></trkpt>
<trkpt lat="48.543196760" lon="2.446218370"><ele></ele><time>2013-8-28T15:50:0Z</time></trkpt>
<trkpt lat="48.543246720" lon="2.446250050"><ele></ele><time>2013-8-28T15:50:3Z</time></trkpt>
<trkpt lat="48.543296670" lon="2.446283410"><ele></ele><time>2013-8-28T15:50:6Z</time></trkpt>
<trkpt lat="48.543345120" lon="2.446321800"><ele></ele><time>2013-8-28T15:50:9Z</time></trkpt>
<trkpt lat="48.543395080" lon="2.446358350"><ele></ele><time>2013-8-28T15:50:12Z</time></trkpt>
<trkpt lat="48.543441680" lon="2.446391710"><ele></ele><time>2013-8-28T15:50:15Z</time></trkpt>
<trkpt lat="48.543491810" lon="2.446421720"><ele></ele><time>2013-8-28T15:50:18Z</time></trkpt>
<trkpt lat="48.543541760" lon="2.446450050"><ele></ele><time>2013-8-28T15:50:21Z</time></trkpt>
<trkpt lat="48.543591720" lon="2.446478380"><ele></ele><time>2013-8-28T15:50:24Z</time></trkpt>
<trkpt lat="48.543645030" lon="2.446505030"><ele></ele><time>2013-8-28T15:50:27Z</time></trkpt>
<trkpt lat="48.543698340" lon="2.446530010"><ele></ele><time>2013-8-28T15:50:30Z</time></trkpt>
<trkpt lat="48.543751810" lon="2.446550130"><ele></ele><time>2013-8-28T15:50:33Z</time></trkpt>
<trkpt lat="48.543803440" lon="2.446568400"><ele></ele><time>2013-8-28T15:50:36Z</time></trkpt>
<trkpt lat="48.543851720" lon="2.446588350"><ele></ele><time>2013-8-28T15:50:39Z</time></trkpt>
<trkpt lat="48.543901680" lon="2.446613490"><ele></ele><time>2013-8-28T15:50:42Z</time></trkpt>
<trkpt lat="48.543951800" lon="2.446640150"><ele></ele><time>2013-8-28T15:50:45Z</time></trkpt>
<trkpt lat="48.544003440" lon="2.446668480"><ele></ele><time>2013-8-28T15:50:48Z</time></trkpt>
<trkpt lat="48.544055070" lon="2.446693460"><ele></ele><time>2013-8-28T15:50:51Z</time></trkpt>
<trkpt lat="48.544108380" lon="2.446720110"><ele></ele><time>2013-8-28T15:50:54Z</time></trkpt>
<trkpt lat="48.544158330" lon="2.446748440"><ele></ele><time>2013-8-28T15:50:57Z</time></trkpt>
<trkpt lat="48.544210130" lon="2.446776770"><ele></ele><time>2013-8-28T15:51:0Z</time></trkpt>
<trkpt lat="48.544261770" lon="2.446806780"><ele></ele><time>2013-8-28T15:51:3Z</time></trkpt>
<trkpt lat="48.544311720" lon="2.446833430"><ele></ele><time>2013-8-28T15:51:6Z</time></trkpt>
<trkpt lat="48.544363360" lon="2.446861770"><ele></ele><time>2013-8-28T15:51:9Z</time></trkpt>
<trkpt lat="48.544411800" lon="2.446890100"><ele></ele><time>2013-8-28T15:51:12Z</time></trkpt>
<trkpt lat="48.544461760" lon="2.446916750"><ele></ele><time>2013-8-28T15:51:15Z</time></trkpt>
<trkpt lat="48.544513390" lon="2.446943400"><ele></ele><time>2013-8-28T15:51:18Z</time></trkpt>
<trkpt lat="48.544565020" lon="2.446970060"><ele></ele><time>2013-8-28T15:51:21Z</time></trkpt>
<trkpt lat="48.544615150" lon="2.446995040"><ele></ele><time>2013-8-28T15:51:24Z</time></trkpt>
<trkpt lat="48.544666780" lon="2.447020020"><ele></ele><time>2013-8-28T15:51:27Z</time></trkpt>
<trkpt lat="48.544716740" lon="2.447046670"><ele></ele><time>2013-8-28T15:51:30Z</time></trkpt>
<trkpt lat="48.544768370" lon="2.447075000"><ele></ele><time>2013-8-28T15:51:33Z</time></trkpt>
<trkpt lat="48.544820000" lon="2.447101820"><ele></ele><time>2013-8-28T15:51:36Z</time></trkpt>
<trkpt lat="48.544870130" lon="2.447130150"><ele></ele><time>2013-8-28T15:51:39Z</time></trkpt>
<trkpt lat="48.544920080" lon="2.447156810"><ele></ele><time>2013-8-28T15:51:42Z</time></trkpt>
<trkpt lat="48.544970040" lon="2.447185140"><ele></ele><time>2013-8-28T15:51:45Z</time></trkpt>
<trkpt lat="48.545020160" lon="2.447211790"><ele></ele><time>2013-8-28T15:51:48Z</time></trkpt>
<trkpt lat="48.545073470" lon="2.447240120"><ele></ele><time>2013-8-28T15:51:51Z</time></trkpt>
<trkpt lat="48.545125100" lon="2.447266780"><ele></ele><time>2013-8-28T15:51:54Z</time></trkpt>
<trkpt lat="48.545176740" lon="2.447295110"><ele></ele><time>2013-8-28T15:51:57Z</time></trkpt>
<trkpt lat="48.545228370" lon="2.447323440"><ele></ele><time>2013-8-28T15:52:0Z</time></trkpt>
<trkpt lat="48.545280000" lon="2.447353450"><ele></ele><time>2013-8-28T15:52:3Z</time></trkpt>
<trkpt lat="48.545331800" lon="2.447380100"><ele></ele><time>2013-8-28T15:52:6Z</time></trkpt>
<trkpt lat="48.545383430" lon="2.447406760"><ele></ele><time>2013-8-28T15:52:9Z</time></trkpt>
<trkpt lat="48.545435070" lon="2.447435090"><ele></ele><time>2013-8-28T15:52:12Z</time></trkpt>
<trkpt lat="48.545488370" lon="2.447461740"><ele></ele><time>2013-8-28T15:52:15Z</time></trkpt>
<trkpt lat="48.545540010" lon="2.447490070"><ele></ele><time>2013-8-28T15:52:18Z</time></trkpt>
<trkpt lat="48.545593480" lon="2.447518400"><ele></ele><time>2013-8-28T15:52:21Z</time></trkpt>
<trkpt lat="48.545645120" lon="2.447546730"><ele></ele><time>2013-8-28T15:52:24Z</time></trkpt>
<trkpt lat="48.545698430" lon="2.447575060"><ele></ele><time>2013-8-28T15:52:27Z</time></trkpt>
<trkpt lat="48.545748380" lon="2.447608420"><ele></ele><time>2013-8-28T15:52:30Z</time></trkpt>
<trkpt lat="48.545800010" lon="2.447638430"><ele></ele><time>2013-8-28T15:52:33Z</time></trkpt>
<trkpt lat="48.545851810" lon="2.447668440"><ele></ele><time>2013-8-28T15:52:36Z</time></trkpt>
<trkpt lat="48.545905120" lon="2.447698450"><ele></ele><time>2013-8-28T15:52:39Z</time></trkpt>
<trkpt lat="48.545960110" lon="2.447731810"><ele></ele><time>2013-8-28T15:52:42Z</time></trkpt>
<trkpt lat="48.546015090" lon="2.447763490"><ele></ele><time>2013-8-28T15:52:45Z</time></trkpt>
<trkpt lat="48.546071760" lon="2.447796680"><ele></ele><time>2013-8-28T15:52:48Z</time></trkpt>
<trkpt lat="48.546128420" lon="2.447826690"><ele></ele><time>2013-8-28T15:52:51Z</time></trkpt>
<trkpt lat="48.546185080" lon="2.447858370"><ele></ele><time>2013-8-28T15:52:54Z</time></trkpt>
<trkpt lat="48.546241740" lon="2.447888380"><ele></ele><time>2013-8-28T15:52:57Z</time></trkpt>
<trkpt lat="48.546300080" lon="2.447916710"><ele></ele><time>2013-8-28T15:53:0Z</time></trkpt>
<trkpt lat="48.546358420" lon="2.447945040"><ele></ele><time>2013-8-28T15:53:3Z</time></trkpt>
<trkpt lat="48.546420110" lon="2.447965160"><ele></ele><time>2013-8-28T15:53:6Z</time></trkpt>
<trkpt lat="48.546483470" lon="2.447980080"><ele></ele><time>2013-8-28T15:53:9Z</time></trkpt>
<trkpt lat="48.546545000" lon="2.447988460"><ele></ele><time>2013-8-28T15:53:12Z</time></trkpt>
<trkpt lat="48.546608360" lon="2.447990140"><ele></ele><time>2013-8-28T15:53:15Z</time></trkpt>
<trkpt lat="48.546670060" lon="2.447988460"><ele></ele><time>2013-8-28T15:53:18Z</time></trkpt>
<trkpt lat="48.546731750" lon="2.447985110"><ele></ele><time>2013-8-28T15:53:21Z</time></trkpt>
<trkpt lat="48.546793440" lon="2.447981750"><ele></ele><time>2013-8-28T15:53:24Z</time></trkpt>
<trkpt lat="48.546855130" lon="2.447978400"><ele></ele><time>2013-8-28T15:53:27Z</time></trkpt>
<trkpt lat="48.546916820" lon="2.447976730"><ele></ele><time>2013-8-28T15:53:30Z</time></trkpt>
<trkpt lat="48.546983370" lon="2.447971700"><ele></ele><time>2013-8-28T15:53:33Z</time></trkpt>
<trkpt lat="48.547046740" lon="2.447970020"><ele></ele><time>2013-8-28T15:53:36Z</time></trkpt>
<trkpt lat="48.547113460" lon="2.447966670"><ele></ele><time>2013-8-28T15:53:39Z</time></trkpt>
<trkpt lat="48.547180010" lon="2.447963480"><ele></ele><time>2013-8-28T15:53:42Z</time></trkpt>
<trkpt lat="48.547245050" lon="2.447961810"><ele></ele><time>2013-8-28T15:53:45Z</time></trkpt>
<trkpt lat="48.547311770" lon="2.447961810"><ele></ele><time>2013-8-28T15:53:48Z</time></trkpt>
<trkpt lat="48.547376820" lon="2.447963480"><ele></ele><time>2013-8-28T15:53:51Z</time></trkpt>
<trkpt lat="48.547443370" lon="2.447966670"><ele></ele><time>2013-8-28T15:53:54Z</time></trkpt>
<trkpt lat="48.547510090" lon="2.447968340"><ele></ele><time>2013-8-28T15:53:57Z</time></trkpt>
<trkpt lat="48.547576810" lon="2.447965160"><ele></ele><time>2013-8-28T15:54:0Z</time></trkpt>
<trkpt lat="48.547645040" lon="2.447956780"><ele></ele><time>2013-8-28T15:54:3Z</time></trkpt>
<trkpt lat="48.547710080" lon="2.447945040"><ele></ele><time>2013-8-28T15:54:6Z</time></trkpt>
<trkpt lat="48.547775130" lon="2.447936830"><ele></ele><time>2013-8-28T15:54:9Z</time></trkpt>
<trkpt lat="48.547838490" lon="2.447928450"><ele></ele><time>2013-8-28T15:54:12Z</time></trkpt>
<trkpt lat="48.547903370" lon="2.447921740"><ele></ele><time>2013-8-28T15:54:15Z</time></trkpt>
<trkpt lat="48.547968410" lon="2.447918390"><ele></ele><time>2013-8-28T15:54:18Z</time></trkpt>
<trkpt lat="48.548031780" lon="2.447915030"><ele></ele><time>2013-8-28T15:54:21Z</time></trkpt>
<trkpt lat="48.548095150" lon="2.447913360"><ele></ele><time>2013-8-28T15:54:24Z</time></trkpt>
<trkpt lat="48.548158350" lon="2.447910010"><ele></ele><time>2013-8-28T15:54:27Z</time></trkpt>
<trkpt lat="48.548221710" lon="2.447908330"><ele></ele><time>2013-8-28T15:54:30Z</time></trkpt>
<trkpt lat="48.548281730" lon="2.447906820"><ele></ele><time>2013-8-28T15:54:33Z</time></trkpt>
<trkpt lat="48.548345100" lon="2.447905140"><ele></ele><time>2013-8-28T15:54:36Z</time></trkpt>
<trkpt lat="48.548408460" lon="2.447905140"><ele></ele><time>2013-8-28T15:54:39Z</time></trkpt>
<trkpt lat="48.548470150" lon="2.447905140"><ele></ele><time>2013-8-28T15:54:42Z</time></trkpt>
<trkpt lat="48.548533350" lon="2.447903470"><ele></ele><time>2013-8-28T15:54:45Z</time></trkpt>
<trkpt lat="48.548598400" lon="2.447905140"><ele></ele><time>2013-8-28T15:54:48Z</time></trkpt>
<trkpt lat="48.548661760" lon="2.447903470"><ele></ele><time>2013-8-28T15:54:51Z</time></trkpt>
<trkpt lat="48.548725130" lon="2.447903470"><ele></ele><time>2013-8-28T15:54:54Z</time></trkpt>
<trkpt lat="48.548786820" lon="2.447903470"><ele></ele><time>2013-8-28T15:54:57Z</time></trkpt>
<trkpt lat="48.548850020" lon="2.447901790"><ele></ele><time>2013-8-28T15:55:0Z</time></trkpt>
<trkpt lat="48.548913390" lon="2.447901790"><ele></ele><time>2013-8-28T15:55:3Z</time></trkpt>
<trkpt lat="48.548975080" lon="2.447906820"><ele></ele><time>2013-8-28T15:55:6Z</time></trkpt>
<trkpt lat="48.549036770" lon="2.447911680"><ele></ele><time>2013-8-28T15:55:9Z</time></trkpt>
<trkpt lat="48.549100140" lon="2.447918390"><ele></ele><time>2013-8-28T15:55:12Z</time></trkpt>
<trkpt lat="48.549161830" lon="2.447925090"><ele></ele><time>2013-8-28T15:55:15Z</time></trkpt>
<trkpt lat="48.549223350" lon="2.447928450"><ele></ele><time>2013-8-28T15:55:18Z</time></trkpt>
<trkpt lat="48.549285040" lon="2.447931800"><ele></ele><time>2013-8-28T15:55:21Z</time></trkpt>
<trkpt lat="48.549348410" lon="2.447931800"><ele></ele><time>2013-8-28T15:55:24Z</time></trkpt>
<trkpt lat="48.549411780" lon="2.447926770"><ele></ele><time>2013-8-28T15:55:27Z</time></trkpt>
<trkpt lat="48.549475140" lon="2.447918390"><ele></ele><time>2013-8-28T15:55:30Z</time></trkpt>
<trkpt lat="48.549536670" lon="2.447910010"><ele></ele><time>2013-8-28T15:55:33Z</time></trkpt>
<trkpt lat="48.549598360" lon="2.447901790"><ele></ele><time>2013-8-28T15:55:36Z</time></trkpt>
<trkpt lat="48.549661720" lon="2.447891730"><ele></ele><time>2013-8-28T15:55:39Z</time></trkpt>
<trkpt lat="48.549723420" lon="2.447885030"><ele></ele><time>2013-8-28T15:55:42Z</time></trkpt>
<trkpt lat="48.549786780" lon="2.447883350"><ele></ele><time>2013-8-28T15:55:45Z</time></trkpt>
<trkpt lat="48.549851830" lon="2.447881670"><ele></ele><time>2013-8-28T15:55:48Z</time></trkpt>
<trkpt lat="48.549915030" lon="2.447881670"><ele></ele><time>2013-8-28T15:55:51Z</time></trkpt>
<trkpt lat="48.549978390" lon="2.447881670"><ele></ele><time>2013-8-28T15:55:54Z</time></trkpt>
<trkpt lat="48.550043440" lon="2.447880000"><ele></ele><time>2013-8-28T15:55:57Z</time></trkpt>
<trkpt lat="48.550108480" lon="2.447880000"><ele></ele><time>2013-8-28T15:56:0Z</time></trkpt>
<trkpt lat="48.550171680" lon="2.447878490"><ele></ele><time>2013-8-28T15:56:3Z</time></trkpt>
<trkpt lat="48.550235050" lon="2.447876810"><ele></ele><time>2013-8-28T15:56:6Z</time></trkpt>
<trkpt lat="48.550298410" lon="2.447875140"><ele></ele><time>2013-8-28T15:56:9Z</time></trkpt>
<trkpt lat="48.550361780" lon="2.447873460"><ele></ele><time>2013-8-28T15:56:12Z</time></trkpt>
<trkpt lat="48.550425150" lon="2.447870110"><ele></ele><time>2013-8-28T15:56:15Z</time></trkpt>
<trkpt lat="48.550490020" lon="2.447870110"><ele></ele><time>2013-8-28T15:56:18Z</time></trkpt>
<trkpt lat="48.550553390" lon="2.447868430"><ele></ele><time>2013-8-28T15:56:21Z</time></trkpt>
<trkpt lat="48.550616760" lon="2.447865080"><ele></ele><time>2013-8-28T15:56:24Z</time></trkpt>
<trkpt lat="48.550680130" lon="2.447865080"><ele></ele><time>2013-8-28T15:56:27Z</time></trkpt>
<trkpt lat="48.550741820" lon="2.447863400"><ele></ele><time>2013-8-28T15:56:30Z</time></trkpt>
<trkpt lat="48.550806690" lon="2.447861730"><ele></ele><time>2013-8-28T15:56:33Z</time></trkpt>
<trkpt lat="48.550870060" lon="2.447860050"><ele></ele><time>2013-8-28T15:56:36Z</time></trkpt>
<trkpt lat="48.550935100" lon="2.447855020"><ele></ele><time>2013-8-28T15:56:39Z</time></trkpt>
<trkpt lat="48.551000150" lon="2.447851670"><ele></ele><time>2013-8-28T15:56:42Z</time></trkpt>
<trkpt lat="48.551065020" lon="2.447848480"><ele></ele><time>2013-8-28T15:56:45Z</time></trkpt>
<trkpt lat="48.551128390" lon="2.447846810"><ele></ele><time>2013-8-28T15:56:48Z</time></trkpt>
<trkpt lat="48.551191760" lon="2.447846810"><ele></ele><time>2013-8-28T15:56:51Z</time></trkpt>
<trkpt lat="48.551256800" lon="2.447845130"><ele></ele><time>2013-8-28T15:56:54Z</time></trkpt>
<trkpt lat="48.551318490" lon="2.447845130"><ele></ele><time>2013-8-28T15:56:57Z</time></trkpt>
<trkpt lat="48.551381690" lon="2.447846810"><ele></ele><time>2013-8-28T15:57:0Z</time></trkpt>
<trkpt lat="48.551443380" lon="2.447848480"><ele></ele><time>2013-8-28T15:57:3Z</time></trkpt>
<trkpt lat="48.551506750" lon="2.447848480"><ele></ele><time>2013-8-28T15:57:6Z</time></trkpt>
<trkpt lat="48.551570120" lon="2.447850160"><ele></ele><time>2013-8-28T15:57:9Z</time></trkpt>
<trkpt lat="48.551633480" lon="2.447853340"><ele></ele><time>2013-8-28T15:57:12Z</time></trkpt>
<trkpt lat="48.551696680" lon="2.447861730"><ele></ele><time>2013-8-28T15:57:15Z</time></trkpt>
<trkpt lat="48.551758370" lon="2.447865080"><ele></ele><time>2013-8-28T15:57:18Z</time></trkpt>
<trkpt lat="48.551821740" lon="2.447860050"><ele></ele><time>2013-8-28T15:57:21Z</time></trkpt>
<trkpt lat="48.551881760" lon="2.447838420"><ele></ele><time>2013-8-28T15:57:24Z</time></trkpt>
<trkpt lat="48.551931710" lon="2.447803390"><ele></ele><time>2013-8-28T15:57:27Z</time></trkpt>
<trkpt lat="48.551991730" lon="2.447733480"><ele></ele><time>2013-8-28T15:57:30Z</time></trkpt>
<trkpt lat="48.551980160" lon="2.447853340"><ele></ele><time>2013-8-28T15:57:33Z</time></trkpt>
<trkpt lat="48.551905060" lon="2.447863400"><ele></ele><time>2013-8-28T15:57:36Z</time></trkpt>
<trkpt lat="48.551820060" lon="2.447841780"><ele></ele><time>2013-8-28T15:57:39Z</time></trkpt>
<trkpt lat="48.551881760" lon="2.447791820"><ele></ele><time>2013-8-28T15:57:42Z</time></trkpt>
<trkpt lat="48.551953340" lon="2.447721750"><ele></ele><time>2013-8-28T15:57:45Z</time></trkpt>
<trkpt lat="48.552018380" lon="2.447730130"><ele></ele><time>2013-8-28T15:57:48Z</time></trkpt>
<trkpt lat="48.552098340" lon="2.447755110"><ele></ele><time>2013-8-28T15:57:51Z</time></trkpt>
<trkpt lat="48.552143440" lon="2.447773380"><ele></ele><time>2013-8-28T15:57:54Z</time></trkpt>
<trkpt lat="48.552201780" lon="2.447798360"><ele></ele><time>2013-8-28T15:57:57Z</time></trkpt>
<trkpt lat="48.552265140" lon="2.447826690"><ele></ele><time>2013-8-28T15:58:0Z</time></trkpt>
<trkpt lat="48.552333370" lon="2.447845130"><ele></ele><time>2013-8-28T15:58:3Z</time></trkpt>
<trkpt lat="48.552405120" lon="2.447855020"><ele></ele><time>2013-8-28T15:58:6Z</time></trkpt>
<trkpt lat="48.552483410" lon="2.447856700"><ele></ele><time>2013-8-28T15:58:9Z</time></trkpt>
<trkpt lat="48.552558340" lon="2.447855020"><ele></ele><time>2013-8-28T15:58:12Z</time></trkpt>
<trkpt lat="48.552630090" lon="2.447850160"><ele></ele><time>2013-8-28T15:58:15Z</time></trkpt>
<trkpt lat="48.552701670" lon="2.447843450"><ele></ele><time>2013-8-28T15:58:18Z</time></trkpt>
<trkpt lat="48.552771750" lon="2.447835070"><ele></ele><time>2013-8-28T15:58:21Z</time></trkpt>
<trkpt lat="48.552840140" lon="2.447830040"><ele></ele><time>2013-8-28T15:58:24Z</time></trkpt>
<trkpt lat="48.552910050" lon="2.447821830"><ele></ele><time>2013-8-28T15:58:27Z</time></trkpt>
<trkpt lat="48.552981800" lon="2.447816800"><ele></ele><time>2013-8-28T15:58:30Z</time></trkpt>
<trkpt lat="48.553051700" lon="2.447811770"><ele></ele><time>2013-8-28T15:58:33Z</time></trkpt>
<trkpt lat="48.553126800" lon="2.447810090"><ele></ele><time>2013-8-28T15:58:36Z</time></trkpt>
<trkpt lat="48.553201740" lon="2.447808420"><ele></ele><time>2013-8-28T15:58:39Z</time></trkpt>
<trkpt lat="48.553273490" lon="2.447806740"><ele></ele><time>2013-8-28T15:58:42Z</time></trkpt>
<trkpt lat="48.553343390" lon="2.447805060"><ele></ele><time>2013-8-28T15:58:45Z</time></trkpt>
<trkpt lat="48.553415140" lon="2.447800040"><ele></ele><time>2013-8-28T15:58:48Z</time></trkpt>
<trkpt lat="48.553483370" lon="2.447796680"><ele></ele><time>2013-8-28T15:58:51Z</time></trkpt>
<trkpt lat="48.553551770" lon="2.447795010"><ele></ele><time>2013-8-28T15:58:54Z</time></trkpt>
<trkpt lat="48.553618490" lon="2.447795010"><ele></ele><time>2013-8-28T15:58:57Z</time></trkpt>
<trkpt lat="48.553686710" lon="2.447793330"><ele></ele><time>2013-8-28T15:59:0Z</time></trkpt>
<trkpt lat="48.553753430" lon="2.447791820"><ele></ele><time>2013-8-28T15:59:3Z</time></trkpt>
<trkpt lat="48.553820150" lon="2.447790140"><ele></ele><time>2013-8-28T15:59:6Z</time></trkpt>
<trkpt lat="48.553886710" lon="2.447786790"><ele></ele><time>2013-8-28T15:59:9Z</time></trkpt>
<trkpt lat="48.553951750" lon="2.447783440"><ele></ele><time>2013-8-28T15:59:12Z</time></trkpt>
<trkpt lat="48.554016790" lon="2.447783440"><ele></ele><time>2013-8-28T15:59:15Z</time></trkpt>
<trkpt lat="48.554081670" lon="2.447781760"><ele></ele><time>2013-8-28T15:59:18Z</time></trkpt>
<trkpt lat="48.554146710" lon="2.447781760"><ele></ele><time>2013-8-28T15:59:21Z</time></trkpt>
<trkpt lat="48.554211760" lon="2.447781760"><ele></ele><time>2013-8-28T15:59:24Z</time></trkpt>
<trkpt lat="48.554276800" lon="2.447781760"><ele></ele><time>2013-8-28T15:59:27Z</time></trkpt>
<trkpt lat="48.554343350" lon="2.447780090"><ele></ele><time>2013-8-28T15:59:30Z</time></trkpt>
<trkpt lat="48.554408400" lon="2.447780090"><ele></ele><time>2013-8-28T15:59:33Z</time></trkpt>
<trkpt lat="48.554471760" lon="2.447778410"><ele></ele><time>2013-8-28T15:59:36Z</time></trkpt>
<trkpt lat="48.554535130" lon="2.447773380"><ele></ele><time>2013-8-28T15:59:39Z</time></trkpt>
<trkpt lat="48.554601680" lon="2.447766680"><ele></ele><time>2013-8-28T15:59:42Z</time></trkpt>
<trkpt lat="48.554668400" lon="2.447758460"><ele></ele><time>2013-8-28T15:59:45Z</time></trkpt>
<trkpt lat="48.554735120" lon="2.447741700"><ele></ele><time>2013-8-28T15:59:48Z</time></trkpt>
<trkpt lat="48.554800000" lon="2.447720070"><ele></ele><time>2013-8-28T15:59:51Z</time></trkpt>
<trkpt lat="48.554861690" lon="2.447690060"><ele></ele><time>2013-8-28T15:59:54Z</time></trkpt>
<trkpt lat="48.554923380" lon="2.447655030"><ele></ele><time>2013-8-28T15:59:57Z</time></trkpt>
<trkpt lat="48.554983390" lon="2.447616810"><ele></ele><time>2013-8-28T16:0:0Z</time></trkpt>
<trkpt lat="48.555046760" lon="2.447583450"><ele></ele><time>2013-8-28T16:0:3Z</time></trkpt>
<trkpt lat="48.555106780" lon="2.447550090"><ele></ele><time>2013-8-28T16:0:6Z</time></trkpt>
<trkpt lat="48.555166790" lon="2.447518400"><ele></ele><time>2013-8-28T16:0:9Z</time></trkpt>
<trkpt lat="48.555223450" lon="2.447486720"><ele></ele><time>2013-8-28T16:0:12Z</time></trkpt>
<trkpt lat="48.555278440" lon="2.447455040"><ele></ele><time>2013-8-28T16:0:15Z</time></trkpt>
<trkpt lat="48.555333420" lon="2.447425030"><ele></ele><time>2013-8-28T16:0:18Z</time></trkpt>
<trkpt lat="48.555390080" lon="2.447395020"><ele></ele><time>2013-8-28T16:0:21Z</time></trkpt>
<trkpt lat="48.555443390" lon="2.447366690"><ele></ele><time>2013-8-28T16:0:24Z</time></trkpt>
<trkpt lat="48.555500060" lon="2.447340040"><ele></ele><time>2013-8-28T16:0:27Z</time></trkpt>
<trkpt lat="48.555555040" lon="2.447313380"><ele></ele><time>2013-8-28T16:0:30Z</time></trkpt>
<trkpt lat="48.555610030" lon="2.447285050"><ele></ele><time>2013-8-28T16:0:33Z</time></trkpt>
<trkpt lat="48.555666690" lon="2.447256720"><ele></ele><time>2013-8-28T16:0:36Z</time></trkpt>
<trkpt lat="48.555721670" lon="2.447228390"><ele></ele><time>2013-8-28T16:0:39Z</time></trkpt>
<trkpt lat="48.555776830" lon="2.447200060"><ele></ele><time>2013-8-28T16:0:42Z</time></trkpt>
<trkpt lat="48.555831810" lon="2.447171730"><ele></ele><time>2013-8-28T16:0:45Z</time></trkpt>
<trkpt lat="48.555886800" lon="2.447145070"><ele></ele><time>2013-8-28T16:0:48Z</time></trkpt>
<trkpt lat="48.555941780" lon="2.447118420"><ele></ele><time>2013-8-28T16:0:51Z</time></trkpt>
<trkpt lat="48.555996770" lon="2.447091760"><ele></ele><time>2013-8-28T16:0:54Z</time></trkpt>
<trkpt lat="48.556051750" lon="2.447065110"><ele></ele><time>2013-8-28T16:0:57Z</time></trkpt>
<trkpt lat="48.556105060" lon="2.447038460"><ele></ele><time>2013-8-28T16:1:0Z</time></trkpt>
<trkpt lat="48.556160050" lon="2.447013480"><ele></ele><time>2013-8-28T16:1:3Z</time></trkpt>
<trkpt lat="48.556215030" lon="2.446988330"><ele></ele><time>2013-8-28T16:1:6Z</time></trkpt>
<trkpt lat="48.556271690" lon="2.446961680"><ele></ele><time>2013-8-28T16:1:9Z</time></trkpt>
<trkpt lat="48.556326680" lon="2.446933350"><ele></ele><time>2013-8-28T16:1:12Z</time></trkpt>
<trkpt lat="48.556383340" lon="2.446906690"><ele></ele><time>2013-8-28T16:1:15Z</time></trkpt>
<trkpt lat="48.556440000" lon="2.446876680"><ele></ele><time>2013-8-28T16:1:18Z</time></trkpt>
<trkpt lat="48.556496660" lon="2.446848350"><ele></ele><time>2013-8-28T16:1:21Z</time></trkpt>
<trkpt lat="48.556550140" lon="2.446818350"><ele></ele><time>2013-8-28T16:1:24Z</time></trkpt>
<trkpt lat="48.556605130" lon="2.446790020"><ele></ele><time>2013-8-28T16:1:27Z</time></trkpt>
<trkpt lat="48.556656760" lon="2.446763360"><ele></ele><time>2013-8-28T16:1:30Z</time></trkpt>
<trkpt lat="48.556708390" lon="2.446736710"><ele></ele><time>2013-8-28T16:1:33Z</time></trkpt>
<trkpt lat="48.556761700" lon="2.446711730"><ele></ele><time>2013-8-28T16:1:36Z</time></trkpt>
<trkpt lat="48.556813330" lon="2.446686750"><ele></ele><time>2013-8-28T16:1:39Z</time></trkpt>
<trkpt lat="48.556861780" lon="2.446661770"><ele></ele><time>2013-8-28T16:1:42Z</time></trkpt>
<trkpt lat="48.556915090" lon="2.446638470"><ele></ele><time>2013-8-28T16:1:45Z</time></trkpt>
<trkpt lat="48.556966720" lon="2.446620030"><ele></ele><time>2013-8-28T16:1:48Z</time></trkpt>
<trkpt lat="48.557015000" lon="2.446598410"><ele></ele><time>2013-8-28T16:1:51Z</time></trkpt>
<trkpt lat="48.557066800" lon="2.446573430"><ele></ele><time>2013-8-28T16:1:54Z</time></trkpt>
<trkpt lat="48.557116760" lon="2.446548450"><ele></ele><time>2013-8-28T16:1:57Z</time></trkpt>
<trkpt lat="48.557168390" lon="2.446525150"><ele></ele><time>2013-8-28T16:2:0Z</time></trkpt>
<trkpt lat="48.557216670" lon="2.446503350"><ele></ele><time>2013-8-28T16:2:3Z</time></trkpt>
<trkpt lat="48.557268470" lon="2.446480050"><ele></ele><time>2013-8-28T16:2:6Z</time></trkpt>
<trkpt lat="48.557320100" lon="2.446456750"><ele></ele><time>2013-8-28T16:2:9Z</time></trkpt>
<trkpt lat="48.557371730" lon="2.446433450"><ele></ele><time>2013-8-28T16:2:12Z</time></trkpt>
<trkpt lat="48.557423370" lon="2.446408470"><ele></ele><time>2013-8-28T16:2:15Z</time></trkpt>
<trkpt lat="48.557476680" lon="2.446383490"><ele></ele><time>2013-8-28T16:2:18Z</time></trkpt>
<trkpt lat="48.557528480" lon="2.446360020"><ele></ele><time>2013-8-28T16:2:21Z</time></trkpt>
<trkpt lat="48.557580110" lon="2.446333370"><ele></ele><time>2013-8-28T16:2:24Z</time></trkpt>
<trkpt lat="48.557633420" lon="2.446308390"><ele></ele><time>2013-8-28T16:2:27Z</time></trkpt>
<trkpt lat="48.557686730" lon="2.446281740"><ele></ele><time>2013-8-28T16:2:30Z</time></trkpt>
<trkpt lat="48.557740040" lon="2.446255080"><ele></ele><time>2013-8-28T16:2:33Z</time></trkpt>
<trkpt lat="48.557790160" lon="2.446230100"><ele></ele><time>2013-8-28T16:2:36Z</time></trkpt>
<trkpt lat="48.557843470" lon="2.446205130"><ele></ele><time>2013-8-28T16:2:39Z</time></trkpt>
<trkpt lat="48.557896780" lon="2.446180150"><ele></ele><time>2013-8-28T16:2:42Z</time></trkpt>
<trkpt lat="48.557948410" lon="2.446155000"><ele></ele><time>2013-8-28T16:2:45Z</time></trkpt>
<trkpt lat="48.557998370" lon="2.446131700"><ele></ele><time>2013-8-28T16:2:48Z</time></trkpt>
<trkpt lat="48.558046810" lon="2.446110080"><ele></ele><time>2013-8-28T16:2:51Z</time></trkpt>
<trkpt lat="48.558096770" lon="2.446088450"><ele></ele><time>2013-8-28T16:2:54Z</time></trkpt>
<trkpt lat="48.558143370" lon="2.446055090"><ele></ele><time>2013-8-28T16:2:57Z</time></trkpt>
<trkpt lat="48.558203390" lon="2.445970100"><ele></ele><time>2013-8-28T16:3:0Z</time></trkpt>
<trkpt lat="48.558255020" lon="2.445913440"><ele></ele><time>2013-8-28T16:3:3Z</time></trkpt>
<trkpt lat="48.558321740" lon="2.445915110"><ele></ele><time>2013-8-28T16:3:6Z</time></trkpt>
<trkpt lat="48.558366670" lon="2.445925000"><ele></ele><time>2013-8-28T16:3:9Z</time></trkpt>
<trkpt lat="48.558426680" lon="2.445921820"><ele></ele><time>2013-8-28T16:3:12Z</time></trkpt>
<trkpt lat="48.558483340" lon="2.445903380"><ele></ele><time>2013-8-28T16:3:15Z</time></trkpt>
<trkpt lat="48.558541680" lon="2.445876720"><ele></ele><time>2013-8-28T16:3:18Z</time></trkpt>
<trkpt lat="48.558603370" lon="2.445841690"><ele></ele><time>2013-8-28T16:3:21Z</time></trkpt>
<trkpt lat="48.558665060" lon="2.445811680"><ele></ele><time>2013-8-28T16:3:24Z</time></trkpt>
<trkpt lat="48.558726750" lon="2.445785030"><ele></ele><time>2013-8-28T16:3:27Z</time></trkpt>
<trkpt lat="48.558788440" lon="2.445763400"><ele></ele><time>2013-8-28T16:3:30Z</time></trkpt>
<trkpt lat="48.558848460" lon="2.445741780"><ele></ele><time>2013-8-28T16:3:33Z</time></trkpt>
<trkpt lat="48.558911830" lon="2.445716800"><ele></ele><time>2013-8-28T16:3:36Z</time></trkpt>
<trkpt lat="48.558975020" lon="2.445698360"><ele></ele><time>2013-8-28T16:3:39Z</time></trkpt>
<trkpt lat="48.559031690" lon="2.445678410"><ele></ele><time>2013-8-28T16:3:42Z</time></trkpt>
<trkpt lat="48.559085000" lon="2.445653430"><ele></ele><time>2013-8-28T16:3:45Z</time></trkpt>
<trkpt lat="48.559141820" lon="2.445630130"><ele></ele><time>2013-8-28T16:3:48Z</time></trkpt>
<trkpt lat="48.559198490" lon="2.445601800"><ele></ele><time>2013-8-28T16:3:51Z</time></trkpt>
<trkpt lat="48.559251800" lon="2.445561730"><ele></ele><time>2013-8-28T16:3:54Z</time></trkpt>
<trkpt lat="48.559300070" lon="2.445518480"><ele></ele><time>2013-8-28T16:3:57Z</time></trkpt>
<trkpt lat="48.559351710" lon="2.445486800"><ele></ele><time>2013-8-28T16:4:0Z</time></trkpt>
<trkpt lat="48.559403340" lon="2.445456790"><ele></ele><time>2013-8-28T16:4:3Z</time></trkpt>
<trkpt lat="48.559455140" lon="2.445430140"><ele></ele><time>2013-8-28T16:4:6Z</time></trkpt>
<trkpt lat="48.559505100" lon="2.445405160"><ele></ele><time>2013-8-28T16:4:9Z</time></trkpt>
<trkpt lat="48.559555050" lon="2.445378340"><ele></ele><time>2013-8-28T16:4:12Z</time></trkpt>
<trkpt lat="48.559605010" lon="2.445351680"><ele></ele><time>2013-8-28T16:4:15Z</time></trkpt>
<trkpt lat="48.559656810" lon="2.445323350"><ele></ele><time>2013-8-28T16:4:18Z</time></trkpt>
<trkpt lat="48.559706760" lon="2.445295020"><ele></ele><time>2013-8-28T16:4:21Z</time></trkpt>
<trkpt lat="48.559756720" lon="2.445268370"><ele></ele><time>2013-8-28T16:4:24Z</time></trkpt>
<trkpt lat="48.559805000" lon="2.445243390"><ele></ele><time>2013-8-28T16:4:27Z</time></trkpt>
<trkpt lat="48.559853450" lon="2.445220090"><ele></ele><time>2013-8-28T16:4:30Z</time></trkpt>
<trkpt lat="48.559900050" lon="2.445196780"><ele></ele><time>2013-8-28T16:4:33Z</time></trkpt>
<trkpt lat="48.559943470" lon="2.445176670"><ele></ele><time>2013-8-28T16:4:36Z</time></trkpt>
<trkpt lat="48.559986720" lon="2.445155040"><ele></ele><time>2013-8-28T16:4:39Z</time></trkpt>
<trkpt lat="48.560033490" lon="2.445133420"><ele></ele><time>2013-8-28T16:4:42Z</time></trkpt>
<trkpt lat="48.560076740" lon="2.445111790"><ele></ele><time>2013-8-28T16:4:45Z</time></trkpt>
<trkpt lat="48.560123350" lon="2.445088490"><ele></ele><time>2013-8-28T16:4:48Z</time></trkpt>
<trkpt lat="48.560171790" lon="2.445061670"><ele></ele><time>2013-8-28T16:4:51Z</time></trkpt>
<trkpt lat="48.560216720" lon="2.445036690"><ele></ele><time>2013-8-28T16:4:54Z</time></trkpt>
<trkpt lat="48.560263490" lon="2.445011710"><ele></ele><time>2013-8-28T16:4:57Z</time></trkpt>
<trkpt lat="48.560308420" lon="2.444988410"><ele></ele><time>2013-8-28T16:5:0Z</time></trkpt>
<trkpt lat="48.560355020" lon="2.444965110"><ele></ele><time>2013-8-28T16:5:3Z</time></trkpt>
<trkpt lat="48.560401790" lon="2.444941810"><ele></ele><time>2013-8-28T16:5:6Z</time></trkpt>
<trkpt lat="48.560448400" lon="2.444918340"><ele></ele><time>2013-8-28T16:5:9Z</time></trkpt>
<trkpt lat="48.560495000" lon="2.444896710"><ele></ele><time>2013-8-28T16:5:12Z</time></trkpt>
<trkpt lat="48.560541770" lon="2.444873410"><ele></ele><time>2013-8-28T16:5:15Z</time></trkpt>
<trkpt lat="48.560588370" lon="2.444850110"><ele></ele><time>2013-8-28T16:5:18Z</time></trkpt>
<trkpt lat="48.560636820" lon="2.444826810"><ele></ele><time>2013-8-28T16:5:21Z</time></trkpt>
<trkpt lat="48.560685100" lon="2.444805010"><ele></ele><time>2013-8-28T16:5:24Z</time></trkpt>
<trkpt lat="48.560733380" lon="2.444785060"><ele></ele><time>2013-8-28T16:5:27Z</time></trkpt>
<trkpt lat="48.560781830" lon="2.444768470"><ele></ele><time>2013-8-28T16:5:30Z</time></trkpt>
<trkpt lat="48.560830110" lon="2.444751700"><ele></ele><time>2013-8-28T16:5:33Z</time></trkpt>
<trkpt lat="48.560878390" lon="2.444735110"><ele></ele><time>2013-8-28T16:5:36Z</time></trkpt>
<trkpt lat="48.560930020" lon="2.444716670"><ele></ele><time>2013-8-28T16:5:39Z</time></trkpt>
<trkpt lat="48.560980140" lon="2.444700070"><ele></ele><time>2013-8-28T16:5:42Z</time></trkpt>
<trkpt lat="48.561030100" lon="2.444686830"><ele></ele><time>2013-8-28T16:5:45Z</time></trkpt>
<trkpt lat="48.561078380" lon="2.444676770"><ele></ele><time>2013-8-28T16:5:48Z</time></trkpt>
<trkpt lat="48.561126830" lon="2.444666710"><ele></ele><time>2013-8-28T16:5:51Z</time></trkpt>
<trkpt lat="48.561171750" lon="2.444658330"><ele></ele><time>2013-8-28T16:5:54Z</time></trkpt>
<trkpt lat="48.561220030" lon="2.444650120"><ele></ele><time>2013-8-28T16:5:57Z</time></trkpt>
<trkpt lat="48.561266800" lon="2.444645090"><ele></ele><time>2013-8-28T16:6:0Z</time></trkpt>
<trkpt lat="48.561313410" lon="2.444638380"><ele></ele><time>2013-8-28T16:6:3Z</time></trkpt>
<trkpt lat="48.561398400" lon="2.444628490"><ele></ele><time>2013-8-28T16:6:6Z</time></trkpt>
<trkpt lat="48.561476690" lon="2.444606700"><ele></ele><time>2013-8-28T16:6:9Z</time></trkpt>
<trkpt lat="48.561550110" lon="2.444593450"><ele></ele><time>2013-8-28T16:6:12Z</time></trkpt>
<trkpt lat="48.561625050" lon="2.444525060"><ele></ele><time>2013-8-28T16:6:15Z</time></trkpt>
<trkpt lat="48.561698470" lon="2.444508460"><ele></ele><time>2013-8-28T16:6:18Z</time></trkpt>
<trkpt lat="48.561785140" lon="2.444480130"><ele></ele><time>2013-8-28T16:6:21Z</time></trkpt>
<trkpt lat="48.561858400" lon="2.444470070"><ele></ele><time>2013-8-28T16:6:24Z</time></trkpt>
<trkpt lat="48.561943390" lon="2.444446770"><ele></ele><time>2013-8-28T16:6:27Z</time></trkpt>
<trkpt lat="48.562025030" lon="2.444420120"><ele></ele><time>2013-8-28T16:6:30Z</time></trkpt>
<trkpt lat="48.562105000" lon="2.444400000"><ele></ele><time>2013-8-28T16:6:33Z</time></trkpt>
<trkpt lat="48.562181770" lon="2.444380050"><ele></ele><time>2013-8-28T16:6:36Z</time></trkpt>
<trkpt lat="48.562253350" lon="2.444363450"><ele></ele><time>2013-8-28T16:6:39Z</time></trkpt>
<trkpt lat="48.562330130" lon="2.444343340"><ele></ele><time>2013-8-28T16:6:42Z</time></trkpt>
<trkpt lat="48.562370030" lon="2.444330090"><ele></ele><time>2013-8-28T16:6:45Z</time></trkpt>
<trkpt lat="48.562488380" lon="2.444296730"><ele></ele><time>2013-8-28T16:6:48Z</time></trkpt>
<trkpt lat="48.562571700" lon="2.444268400"><ele></ele><time>2013-8-28T16:6:51Z</time></trkpt>
<trkpt lat="48.562653340" lon="2.444243430"><ele></ele><time>2013-8-28T16:6:54Z</time></trkpt>
<trkpt lat="48.562733470" lon="2.444221800"><ele></ele><time>2013-8-28T16:6:57Z</time></trkpt>
<trkpt lat="48.562815110" lon="2.444198330"><ele></ele><time>2013-8-28T16:7:0Z</time></trkpt>
<trkpt lat="48.562891720" lon="2.444170000"><ele></ele><time>2013-8-28T16:7:3Z</time></trkpt>
<trkpt lat="48.562973360" lon="2.444141670"><ele></ele><time>2013-8-28T16:7:6Z</time></trkpt>
<trkpt lat="48.563050140" lon="2.444106800"><ele></ele><time>2013-8-28T16:7:9Z</time></trkpt>
<trkpt lat="48.563126750" lon="2.444065060"><ele></ele><time>2013-8-28T16:7:12Z</time></trkpt>
<trkpt lat="48.563211740" lon="2.444041760"><ele></ele><time>2013-8-28T16:7:15Z</time></trkpt>
<trkpt lat="48.563258340" lon="2.444033380"><ele></ele><time>2013-8-28T16:7:18Z</time></trkpt>
<trkpt lat="48.563301760" lon="2.444025160"><ele></ele><time>2013-8-28T16:7:21Z</time></trkpt>
<trkpt lat="48.563350040" lon="2.444015100"><ele></ele><time>2013-8-28T16:7:24Z</time></trkpt>
<trkpt lat="48.563406700" lon="2.444001690"><ele></ele><time>2013-8-28T16:7:27Z</time></trkpt>
<trkpt lat="48.563461690" lon="2.443995150"><ele></ele><time>2013-8-28T16:7:30Z</time></trkpt>
<trkpt lat="48.563523380" lon="2.443991800"><ele></ele><time>2013-8-28T16:7:33Z</time></trkpt>
<trkpt lat="48.563585070" lon="2.443981740"><ele></ele><time>2013-8-28T16:7:36Z</time></trkpt>
<trkpt lat="48.563648440" lon="2.443968330"><ele></ele><time>2013-8-28T16:7:39Z</time></trkpt>
<trkpt lat="48.563721700" lon="2.443956770"><ele></ele><time>2013-8-28T16:7:42Z</time></trkpt>
<trkpt lat="48.563805010" lon="2.443945030"><ele></ele><time>2013-8-28T16:7:45Z</time></trkpt>
<trkpt lat="48.563891680" lon="2.443921730"><ele></ele><time>2013-8-28T16:7:48Z</time></trkpt>
<trkpt lat="48.563978350" lon="2.443898430"><ele></ele><time>2013-8-28T16:7:51Z</time></trkpt>
<trkpt lat="48.564068370" lon="2.443875130"><ele></ele><time>2013-8-28T16:7:54Z</time></trkpt>
<trkpt lat="48.564158390" lon="2.443851820"><ele></ele><time>2013-8-28T16:7:57Z</time></trkpt>
<trkpt lat="48.564251770" lon="2.443826680"><ele></ele><time>2013-8-28T16:8:0Z</time></trkpt>
<trkpt lat="48.564338440" lon="2.443805050"><ele></ele><time>2013-8-28T16:8:3Z</time></trkpt>
<trkpt lat="48.564420080" lon="2.443785100"><ele></ele><time>2013-8-28T16:8:6Z</time></trkpt>
<trkpt lat="48.564498360" lon="2.443766660"><ele></ele><time>2013-8-28T16:8:9Z</time></trkpt>
<trkpt lat="48.564578490" lon="2.443746710"><ele></ele><time>2013-8-28T16:8:12Z</time></trkpt>
<trkpt lat="48.564660130" lon="2.443728440"><ele></ele><time>2013-8-28T16:8:15Z</time></trkpt>
<trkpt lat="48.564740100" lon="2.443711680"><ele></ele><time>2013-8-28T16:8:18Z</time></trkpt>
<trkpt lat="48.564815030" lon="2.443693410"><ele></ele><time>2013-8-28T16:8:21Z</time></trkpt>
<trkpt lat="48.564883430" lon="2.443675130"><ele></ele><time>2013-8-28T16:8:24Z</time></trkpt>
<trkpt lat="48.564950150" lon="2.443656690"><ele></ele><time>2013-8-28T16:8:27Z</time></trkpt>
<trkpt lat="48.565020050" lon="2.443641770"><ele></ele><time>2013-8-28T16:8:30Z</time></trkpt>
<trkpt lat="48.565091800" lon="2.443623330"><ele></ele><time>2013-8-28T16:8:33Z</time></trkpt>
<trkpt lat="48.565161710" lon="2.443608410"><ele></ele><time>2013-8-28T16:8:36Z</time></trkpt>
<trkpt lat="48.565231780" lon="2.443593490"><ele></ele><time>2013-8-28T16:8:39Z</time></trkpt>
<trkpt lat="48.565303360" lon="2.443581760"><ele></ele><time>2013-8-28T16:8:42Z</time></trkpt>
<trkpt lat="48.565373430" lon="2.443571700"><ele></ele><time>2013-8-28T16:8:45Z</time></trkpt>
<trkpt lat="48.565441660" lon="2.443556780"><ele></ele><time>2013-8-28T16:8:48Z</time></trkpt>
<trkpt lat="48.565510060" lon="2.443531800"><ele></ele><time>2013-8-28T16:8:51Z</time></trkpt>
<trkpt lat="48.565570070" lon="2.443491740"><ele></ele><time>2013-8-28T16:8:54Z</time></trkpt>
<trkpt lat="48.565621710" lon="2.443446810"><ele></ele><time>2013-8-28T16:8:57Z</time></trkpt>
<trkpt lat="48.565665120" lon="2.443400040"><ele></ele><time>2013-8-28T16:9:0Z</time></trkpt>
<trkpt lat="48.565725140" lon="2.443361820"><ele></ele><time>2013-8-28T16:9:3Z</time></trkpt>
<trkpt lat="48.565795040" lon="2.443336670"><ele></ele><time>2013-8-28T16:9:6Z</time></trkpt>
<trkpt lat="48.565866790" lon="2.443318400"><ele></ele><time>2013-8-28T16:9:9Z</time></trkpt>
<trkpt lat="48.565938370" lon="2.443303480"><ele></ele><time>2013-8-28T16:9:12Z</time></trkpt>
<trkpt lat="48.566000070" lon="2.443285040"><ele></ele><time>2013-8-28T16:9:15Z</time></trkpt>
<trkpt lat="48.566046670" lon="2.443261740"><ele></ele><time>2013-8-28T16:9:18Z</time></trkpt>
<trkpt lat="48.566090090" lon="2.443236760"><ele></ele><time>2013-8-28T16:9:21Z</time></trkpt>
<trkpt lat="48.566166700" lon="2.443208430"><ele></ele><time>2013-8-28T16:9:24Z</time></trkpt>
<trkpt lat="48.566240120" lon="2.443283360"><ele></ele><time>2013-8-28T16:9:27Z</time></trkpt>
<trkpt lat="48.566258400" lon="2.443405070"><ele></ele><time>2013-8-28T16:9:30Z</time></trkpt>
<trkpt lat="48.566295110" lon="2.443501800"><ele></ele><time>2013-8-28T16:9:33Z</time></trkpt>
<trkpt lat="48.566373400" lon="2.443520070"><ele></ele><time>2013-8-28T16:9:36Z</time></trkpt>
<trkpt lat="48.566430060" lon="2.443605060"><ele></ele><time>2013-8-28T16:9:39Z</time></trkpt>
<trkpt lat="48.566450010" lon="2.443720060"><ele></ele><time>2013-8-28T16:9:42Z</time></trkpt>
<trkpt lat="48.566466770" lon="2.443843440"><ele></ele><time>2013-8-28T16:9:45Z</time></trkpt>
<trkpt lat="48.566483370" lon="2.443938490"><ele></ele><time>2013-8-28T16:9:48Z</time></trkpt>
<trkpt lat="48.566505160" lon="2.444045110"><ele></ele><time>2013-8-28T16:9:51Z</time></trkpt>
<trkpt lat="48.566531810" lon="2.444160110"><ele></ele><time>2013-8-28T16:9:54Z</time></trkpt>
<trkpt lat="48.566558470" lon="2.444283490"><ele></ele><time>2013-8-28T16:9:57Z</time></trkpt>
<trkpt lat="48.566573390" lon="2.444351720"><ele></ele><time>2013-8-28T16:10:0Z</time></trkpt>
<trkpt lat="48.566590150" lon="2.444420120"><ele></ele><time>2013-8-28T16:10:3Z</time></trkpt>
<trkpt lat="48.566606750" lon="2.444490020"><ele></ele><time>2013-8-28T16:10:6Z</time></trkpt>
<trkpt lat="48.566621670" lon="2.444560090"><ele></ele><time>2013-8-28T16:10:9Z</time></trkpt>
<trkpt lat="48.566636750" lon="2.444631680"><ele></ele><time>2013-8-28T16:10:12Z</time></trkpt>
<trkpt lat="48.566653350" lon="2.444701750"><ele></ele><time>2013-8-28T16:10:15Z</time></trkpt>
<trkpt lat="48.566670110" lon="2.444773330"><ele></ele><time>2013-8-28T16:10:18Z</time></trkpt>
<trkpt lat="48.566685030" lon="2.444845080"><ele></ele><time>2013-8-28T16:10:21Z</time></trkpt>
<trkpt lat="48.566700120" lon="2.444916830"><ele></ele><time>2013-8-28T16:10:24Z</time></trkpt>
<trkpt lat="48.566715040" lon="2.444990090"><ele></ele><time>2013-8-28T16:10:27Z</time></trkpt>
<trkpt lat="48.566731810" lon="2.445061670"><ele></ele><time>2013-8-28T16:10:30Z</time></trkpt>
<trkpt lat="48.566746730" lon="2.445133420"><ele></ele><time>2013-8-28T16:10:33Z</time></trkpt>
<trkpt lat="48.566761810" lon="2.445206670"><ele></ele><time>2013-8-28T16:10:36Z</time></trkpt>
<trkpt lat="48.566773380" lon="2.445276750"><ele></ele><time>2013-8-28T16:10:39Z</time></trkpt>
<trkpt lat="48.566781760" lon="2.445346820"><ele></ele><time>2013-8-28T16:10:42Z</time></trkpt>
<trkpt lat="48.566793330" lon="2.445418400"><ele></ele><time>2013-8-28T16:10:45Z</time></trkpt>
<trkpt lat="48.566810090" lon="2.445490150"><ele></ele><time>2013-8-28T16:10:48Z</time></trkpt>
<trkpt lat="48.566830040" lon="2.445560060"><ele></ele><time>2013-8-28T16:10:51Z</time></trkpt>
<trkpt lat="48.566848480" lon="2.445633480"><ele></ele><time>2013-8-28T16:10:54Z</time></trkpt>
<trkpt lat="48.566866750" lon="2.445708420"><ele></ele><time>2013-8-28T16:10:57Z</time></trkpt>
<trkpt lat="48.566888380" lon="2.445785030"><ele></ele><time>2013-8-28T16:11:0Z</time></trkpt>
<trkpt lat="48.566905140" lon="2.445858450"><ele></ele><time>2013-8-28T16:11:3Z</time></trkpt>
<trkpt lat="48.566921740" lon="2.445930030"><ele></ele><time>2013-8-28T16:11:6Z</time></trkpt>
<trkpt lat="48.566938340" lon="2.446001780"><ele></ele><time>2013-8-28T16:11:9Z</time></trkpt>
<trkpt lat="48.566953420" lon="2.446073360"><ele></ele><time>2013-8-28T16:11:12Z</time></trkpt>
<trkpt lat="48.566961800" lon="2.446153490"><ele></ele><time>2013-8-28T16:11:15Z</time></trkpt>
<trkpt lat="48.566965160" lon="2.446233460"><ele></ele><time>2013-8-28T16:11:18Z</time></trkpt>
<trkpt lat="48.566968340" lon="2.446313420"><ele></ele><time>2013-8-28T16:11:21Z</time></trkpt>
<trkpt lat="48.566971700" lon="2.446390030"><ele></ele><time>2013-8-28T16:11:24Z</time></trkpt>
<trkpt lat="48.566978400" lon="2.446466810"><ele></ele><time>2013-8-28T16:11:27Z</time></trkpt>
<trkpt lat="48.566990140" lon="2.446541740"><ele></ele><time>2013-8-28T16:11:30Z</time></trkpt>
<trkpt lat="48.567003380" lon="2.446618350"><ele></ele><time>2013-8-28T16:11:33Z</time></trkpt>
<trkpt lat="48.567016790" lon="2.446695130"><ele></ele><time>2013-8-28T16:11:36Z</time></trkpt>
<trkpt lat="48.567033390" lon="2.446771740"><ele></ele><time>2013-8-28T16:11:39Z</time></trkpt>
<trkpt lat="48.567050150" lon="2.446845000"><ele></ele><time>2013-8-28T16:11:42Z</time></trkpt>
<trkpt lat="48.567066750" lon="2.446920100"><ele></ele><time>2013-8-28T16:11:45Z</time></trkpt>
<trkpt lat="48.567080160" lon="2.446995040"><ele></ele><time>2013-8-28T16:11:48Z</time></trkpt>
<trkpt lat="48.567095080" lon="2.447071820"><ele></ele><time>2013-8-28T16:11:51Z</time></trkpt>
<trkpt lat="48.567111670" lon="2.447146750"><ele></ele><time>2013-8-28T16:11:54Z</time></trkpt>
<trkpt lat="48.567128440" lon="2.447221680"><ele></ele><time>2013-8-28T16:11:57Z</time></trkpt>
<trkpt lat="48.567135140" lon="2.447305000"><ele></ele><time>2013-8-28T16:12:0Z</time></trkpt>
<trkpt lat="48.567148390" lon="2.447383450"><ele></ele><time>2013-8-28T16:12:3Z</time></trkpt>
<trkpt lat="48.567165150" lon="2.447461740"><ele></ele><time>2013-8-28T16:12:6Z</time></trkpt>
<trkpt lat="48.567180070" lon="2.447538350"><ele></ele><time>2013-8-28T16:12:9Z</time></trkpt>
<trkpt lat="48.567195160" lon="2.447615130"><ele></ele><time>2013-8-28T16:12:12Z</time></trkpt>
<trkpt lat="48.567210080" lon="2.447691740"><ele></ele><time>2013-8-28T16:12:15Z</time></trkpt>
<trkpt lat="48.567226670" lon="2.447770030"><ele></ele><time>2013-8-28T16:12:18Z</time></trkpt>
<trkpt lat="48.567245110" lon="2.447845130"><ele></ele><time>2013-8-28T16:12:21Z</time></trkpt>
<trkpt lat="48.567263390" lon="2.447921740"><ele></ele><time>2013-8-28T16:12:24Z</time></trkpt>
<trkpt lat="48.567280150" lon="2.447993490"><ele></ele><time>2013-8-28T16:12:27Z</time></trkpt>
<trkpt lat="48.567300100" lon="2.448068420"><ele></ele><time>2013-8-28T16:12:30Z</time></trkpt>
<trkpt lat="48.567321720" lon="2.448140010"><ele></ele><time>2013-8-28T16:12:33Z</time></trkpt>
<trkpt lat="48.567335130" lon="2.448211750"><ele></ele><time>2013-8-28T16:12:36Z</time></trkpt>
<trkpt lat="48.567333460" lon="2.448283340"><ele></ele><time>2013-8-28T16:12:39Z</time></trkpt>
<trkpt lat="48.567313340" lon="2.448350060"><ele></ele><time>2013-8-28T16:12:42Z</time></trkpt>
<trkpt lat="48.567310160" lon="2.448418450"><ele></ele><time>2013-8-28T16:12:45Z</time></trkpt>
<trkpt lat="48.567330110" lon="2.448486680"><ele></ele><time>2013-8-28T16:12:48Z</time></trkpt>
<trkpt lat="48.567356760" lon="2.448551720"><ele></ele><time>2013-8-28T16:12:51Z</time></trkpt>
<trkpt lat="48.567388440" lon="2.448610060"><ele></ele><time>2013-8-28T16:12:54Z</time></trkpt>
<trkpt lat="48.567433370" lon="2.448650130"><ele></ele><time>2013-8-28T16:12:57Z</time></trkpt>
<trkpt lat="48.567480140" lon="2.448673430"><ele></ele><time>2013-8-28T16:13:0Z</time></trkpt>
<trkpt lat="48.567536800" lon="2.448775020"><ele></ele><time>2013-8-28T16:13:3Z</time></trkpt>
<trkpt lat="48.567556750" lon="2.448850120"><ele></ele><time>2013-8-28T16:13:6Z</time></trkpt>
<trkpt lat="48.567571670" lon="2.448930080"><ele></ele><time>2013-8-28T16:13:9Z</time></trkpt>
<trkpt lat="48.567588440" lon="2.449010050"><ele></ele><time>2013-8-28T16:13:12Z</time></trkpt>
<trkpt lat="48.567605030" lon="2.449091690"><ele></ele><time>2013-8-28T16:13:15Z</time></trkpt>
<trkpt lat="48.567623470" lon="2.449173490"><ele></ele><time>2013-8-28T16:13:18Z</time></trkpt>
<trkpt lat="48.567641740" lon="2.449255130"><ele></ele><time>2013-8-28T16:13:21Z</time></trkpt>
<trkpt lat="48.567660020" lon="2.449336770"><ele></ele><time>2013-8-28T16:13:24Z</time></trkpt>
<trkpt lat="48.567678460" lon="2.449418410"><ele></ele><time>2013-8-28T16:13:27Z</time></trkpt>
<trkpt lat="48.567696730" lon="2.449500050"><ele></ele><time>2013-8-28T16:13:30Z</time></trkpt>
<trkpt lat="48.567715000" lon="2.449581690"><ele></ele><time>2013-8-28T16:13:33Z</time></trkpt>
<trkpt lat="48.567731770" lon="2.449663330"><ele></ele><time>2013-8-28T16:13:36Z</time></trkpt>
<trkpt lat="48.567750040" lon="2.449746820"><ele></ele><time>2013-8-28T16:13:39Z</time></trkpt>
<trkpt lat="48.567768480" lon="2.449830130"><ele></ele><time>2013-8-28T16:13:42Z</time></trkpt>
<trkpt lat="48.567785080" lon="2.449915120"><ele></ele><time>2013-8-28T16:13:45Z</time></trkpt>
<trkpt lat="48.567801670" lon="2.450000120"><ele></ele><time>2013-8-28T16:13:48Z</time></trkpt>
<trkpt lat="48.567818440" lon="2.450086790"><ele></ele><time>2013-8-28T16:13:51Z</time></trkpt>
<trkpt lat="48.567838380" lon="2.450171780"><ele></ele><time>2013-8-28T16:13:54Z</time></trkpt>
<trkpt lat="48.567856820" lon="2.450255090"><ele></ele><time>2013-8-28T16:13:57Z</time></trkpt>
<trkpt lat="48.567876770" lon="2.450338410"><ele></ele><time>2013-8-28T16:14:0Z</time></trkpt>
<trkpt lat="48.567896720" lon="2.450420050"><ele></ele><time>2013-8-28T16:14:3Z</time></trkpt>
<trkpt lat="48.567918350" lon="2.450503370"><ele></ele><time>2013-8-28T16:14:6Z</time></trkpt>
<trkpt lat="48.567935110" lon="2.450588360"><ele></ele><time>2013-8-28T16:14:9Z</time></trkpt>
<trkpt lat="48.567950030" lon="2.450675030"><ele></ele><time>2013-8-28T16:14:12Z</time></trkpt>
<trkpt lat="48.567965120" lon="2.450761700"><ele></ele><time>2013-8-28T16:14:15Z</time></trkpt>
<trkpt lat="48.567980040" lon="2.450845010"><ele></ele><time>2013-8-28T16:14:18Z</time></trkpt>
<trkpt lat="48.567998480" lon="2.450928330"><ele></ele><time>2013-8-28T16:14:21Z</time></trkpt>
<trkpt lat="48.568016750" lon="2.451010140"><ele></ele><time>2013-8-28T16:14:24Z</time></trkpt>
<trkpt lat="48.568035020" lon="2.451091780"><ele></ele><time>2013-8-28T16:14:27Z</time></trkpt>
<trkpt lat="48.568055140" lon="2.451173420"><ele></ele><time>2013-8-28T16:14:30Z</time></trkpt>
<trkpt lat="48.568071740" lon="2.451255060"><ele></ele><time>2013-8-28T16:14:33Z</time></trkpt>
<trkpt lat="48.568086820" lon="2.451341720"><ele></ele><time>2013-8-28T16:14:36Z</time></trkpt>
<trkpt lat="48.568103420" lon="2.451426720"><ele></ele><time>2013-8-28T16:14:39Z</time></trkpt>
<trkpt lat="48.568120020" lon="2.451511710"><ele></ele><time>2013-8-28T16:14:42Z</time></trkpt>
<trkpt lat="48.568138460" lon="2.451596700"><ele></ele><time>2013-8-28T16:14:45Z</time></trkpt>
<trkpt lat="48.568161760" lon="2.451681690"><ele></ele><time>2013-8-28T16:14:48Z</time></trkpt>
<trkpt lat="48.568200150" lon="2.451751770"><ele></ele><time>2013-8-28T16:14:51Z</time></trkpt>
<trkpt lat="48.568251780" lon="2.451800050"><ele></ele><time>2013-8-28T16:14:54Z</time></trkpt>
<trkpt lat="48.568305090" lon="2.451838440"><ele></ele><time>2013-8-28T16:14:57Z</time></trkpt>
<trkpt lat="48.568358400" lon="2.451866770"><ele></ele><time>2013-8-28T16:15:0Z</time></trkpt>
<trkpt lat="48.568413380" lon="2.451873470"><ele></ele><time>2013-8-28T16:15:3Z</time></trkpt>
<trkpt lat="48.568461660" lon="2.451856710"><ele></ele><time>2013-8-28T16:15:6Z</time></trkpt>
<trkpt lat="48.568510110" lon="2.451831730"><ele></ele><time>2013-8-28T16:15:9Z</time></trkpt>
<trkpt lat="48.568560070" lon="2.451808430"><ele></ele><time>2013-8-28T16:15:12Z</time></trkpt>
<trkpt lat="48.568610020" lon="2.451790160"><ele></ele><time>2013-8-28T16:15:15Z</time></trkpt>
<trkpt lat="48.568666680" lon="2.451778420"><ele></ele><time>2013-8-28T16:15:18Z</time></trkpt>
<trkpt lat="48.568723350" lon="2.451786800"><ele></ele><time>2013-8-28T16:15:21Z</time></trkpt>
<trkpt lat="48.568783360" lon="2.451796690"><ele></ele><time>2013-8-28T16:15:24Z</time></trkpt>
<trkpt lat="48.568843370" lon="2.451788480"><ele></ele><time>2013-8-28T16:15:27Z</time></trkpt>
<trkpt lat="48.568901710" lon="2.451763330"><ele></ele><time>2013-8-28T16:15:30Z</time></trkpt>
<trkpt lat="48.568960050" lon="2.451735000"><ele></ele><time>2013-8-28T16:15:33Z</time></trkpt>
<trkpt lat="48.569018390" lon="2.451710030"><ele></ele><time>2013-8-28T16:15:36Z</time></trkpt>
<trkpt lat="48.569078400" lon="2.451683370"><ele></ele><time>2013-8-28T16:15:39Z</time></trkpt>
<trkpt lat="48.569138420" lon="2.451655040"><ele></ele><time>2013-8-28T16:15:42Z</time></trkpt>
<trkpt lat="48.569201780" lon="2.451623360"><ele></ele><time>2013-8-28T16:15:45Z</time></trkpt>
<trkpt lat="48.569263480" lon="2.451591670"><ele></ele><time>2013-8-28T16:15:48Z</time></trkpt>
<trkpt lat="48.569326680" lon="2.451558480"><ele></ele><time>2013-8-28T16:15:51Z</time></trkpt>
<trkpt lat="48.569390040" lon="2.451526800"><ele></ele><time>2013-8-28T16:15:54Z</time></trkpt>
<trkpt lat="48.569453410" lon="2.451491760"><ele></ele><time>2013-8-28T16:15:57Z</time></trkpt>
<trkpt lat="48.569516780" lon="2.451456720"><ele></ele><time>2013-8-28T16:16:0Z</time></trkpt>
<trkpt lat="48.569580140" lon="2.451423360"><ele></ele><time>2013-8-28T16:16:3Z</time></trkpt>
<trkpt lat="48.569643340" lon="2.451393360"><ele></ele><time>2013-8-28T16:16:6Z</time></trkpt>
<trkpt lat="48.569708390" lon="2.451360000"><ele></ele><time>2013-8-28T16:16:9Z</time></trkpt>
<trkpt lat="48.569770080" lon="2.451328480"><ele></ele><time>2013-8-28T16:16:12Z</time></trkpt>
<trkpt lat="48.569830090" lon="2.451298470"><ele></ele><time>2013-8-28T16:16:15Z</time></trkpt>
<trkpt lat="48.569891780" lon="2.451270140"><ele></ele><time>2013-8-28T16:16:18Z</time></trkpt>
<trkpt lat="48.569953470" lon="2.451240140"><ele></ele><time>2013-8-28T16:16:21Z</time></trkpt>
<trkpt lat="48.570016670" lon="2.451208450"><ele></ele><time>2013-8-28T16:16:24Z</time></trkpt>
<trkpt lat="48.570076690" lon="2.451175090"><ele></ele><time>2013-8-28T16:16:27Z</time></trkpt>
<trkpt lat="48.570135030" lon="2.451145090"><ele></ele><time>2013-8-28T16:16:30Z</time></trkpt>
<trkpt lat="48.570195040" lon="2.451115080"><ele></ele><time>2013-8-28T16:16:33Z</time></trkpt>
<trkpt lat="48.570253380" lon="2.451080040"><ele></ele><time>2013-8-28T16:16:36Z</time></trkpt>
<trkpt lat="48.570310040" lon="2.451036790"><ele></ele><time>2013-8-28T16:16:39Z</time></trkpt>
<trkpt lat="48.570366700" lon="2.450990020"><ele></ele><time>2013-8-28T16:16:42Z</time></trkpt>
<trkpt lat="48.570421690" lon="2.450940060"><ele></ele><time>2013-8-28T16:16:45Z</time></trkpt>
<trkpt lat="48.570475000" lon="2.450888430"><ele></ele><time>2013-8-28T16:16:48Z</time></trkpt>
<trkpt lat="48.570530150" lon="2.450835120"><ele></ele><time>2013-8-28T16:16:51Z</time></trkpt>
<trkpt lat="48.570585130" lon="2.450775110"><ele></ele><time>2013-8-28T16:16:54Z</time></trkpt>
<trkpt lat="48.570638440" lon="2.450716770"><ele></ele><time>2013-8-28T16:16:57Z</time></trkpt>
<trkpt lat="48.570696780" lon="2.450655080"><ele></ele><time>2013-8-28T16:17:0Z</time></trkpt>
<trkpt lat="48.570753440" lon="2.450590040"><ele></ele><time>2013-8-28T16:17:3Z</time></trkpt>
<trkpt lat="48.570811780" lon="2.450523480"><ele></ele><time>2013-8-28T16:17:6Z</time></trkpt>
<trkpt lat="48.570871800" lon="2.450455090"><ele></ele><time>2013-8-28T16:17:9Z</time></trkpt>
<trkpt lat="48.570931810" lon="2.450388370"><ele></ele><time>2013-8-28T16:17:12Z</time></trkpt>
<trkpt lat="48.570995010" lon="2.450323490"><ele></ele><time>2013-8-28T16:17:15Z</time></trkpt>
<trkpt lat="48.571063410" lon="2.450265150"><ele></ele><time>2013-8-28T16:17:18Z</time></trkpt>
<trkpt lat="48.571138340" lon="2.450225090"><ele></ele><time>2013-8-28T16:17:21Z</time></trkpt>
<trkpt lat="48.571215120" lon="2.450180160"><ele></ele><time>2013-8-28T16:17:24Z</time></trkpt>
<trkpt lat="48.571281670" lon="2.450108410"><ele></ele><time>2013-8-28T16:17:27Z</time></trkpt>
<trkpt lat="48.571338330" lon="2.450020070"><ele></ele><time>2013-8-28T16:17:30Z</time></trkpt>
<trkpt lat="48.571393480" lon="2.449928370"><ele></ele><time>2013-8-28T16:17:33Z</time></trkpt>
<trkpt lat="48.571451820" lon="2.449843380"><ele></ele><time>2013-8-28T16:17:36Z</time></trkpt>
<trkpt lat="48.571515020" lon="2.449761740"><ele></ele><time>2013-8-28T16:17:39Z</time></trkpt>
<trkpt lat="48.571578390" lon="2.449688480"><ele></ele><time>2013-8-28T16:17:42Z</time></trkpt>
<trkpt lat="48.571641760" lon="2.449618410"><ele></ele><time>2013-8-28T16:17:45Z</time></trkpt>
<trkpt lat="48.571703450" lon="2.449548330"><ele></ele><time>2013-8-28T16:17:48Z</time></trkpt>
<trkpt lat="48.571766810" lon="2.449478430"><ele></ele><time>2013-8-28T16:17:51Z</time></trkpt>
<trkpt lat="48.571831690" lon="2.449413380"><ele></ele><time>2013-8-28T16:17:54Z</time></trkpt>
<trkpt lat="48.571896730" lon="2.449348340"><ele></ele><time>2013-8-28T16:17:57Z</time></trkpt>
<trkpt lat="48.571960100" lon="2.449290000"><ele></ele><time>2013-8-28T16:18:0Z</time></trkpt>
<trkpt lat="48.572025150" lon="2.449235020"><ele></ele><time>2013-8-28T16:18:3Z</time></trkpt>
<trkpt lat="48.572090020" lon="2.449183380"><ele></ele><time>2013-8-28T16:18:6Z</time></trkpt>
<trkpt lat="48.572155060" lon="2.449131750"><ele></ele><time>2013-8-28T16:18:9Z</time></trkpt>
<trkpt lat="48.572221780" lon="2.449080120"><ele></ele><time>2013-8-28T16:18:12Z</time></trkpt>
<trkpt lat="48.572286830" lon="2.449028490"><ele></ele><time>2013-8-28T16:18:15Z</time></trkpt>
<trkpt lat="48.572353380" lon="2.448981720"><ele></ele><time>2013-8-28T16:18:18Z</time></trkpt>
<trkpt lat="48.572421780" lon="2.448938470"><ele></ele><time>2013-8-28T16:18:21Z</time></trkpt>
<trkpt lat="48.572491680" lon="2.448896720"><ele></ele><time>2013-8-28T16:18:24Z</time></trkpt>
<trkpt lat="48.572560080" lon="2.448855150"><ele></ele><time>2013-8-28T16:18:27Z</time></trkpt>
<trkpt lat="48.572633340" lon="2.448816760"><ele></ele><time>2013-8-28T16:18:30Z</time></trkpt>
<trkpt lat="48.572706760" lon="2.448781720"><ele></ele><time>2013-8-28T16:18:33Z</time></trkpt>
<trkpt lat="48.572783370" lon="2.448750040"><ele></ele><time>2013-8-28T16:18:36Z</time></trkpt>
<trkpt lat="48.572861830" lon="2.448720030"><ele></ele><time>2013-8-28T16:18:39Z</time></trkpt>
<trkpt lat="48.572941790" lon="2.448690030"><ele></ele><time>2013-8-28T16:18:42Z</time></trkpt>
<trkpt lat="48.573025110" lon="2.448658340"><ele></ele><time>2013-8-28T16:18:45Z</time></trkpt>
<trkpt lat="48.573110100" lon="2.448630010"><ele></ele><time>2013-8-28T16:18:48Z</time></trkpt>
<trkpt lat="48.573200120" lon="2.448598500"><ele></ele><time>2013-8-28T16:18:51Z</time></trkpt>
<trkpt lat="48.573288470" lon="2.448563460"><ele></ele><time>2013-8-28T16:18:54Z</time></trkpt>
<trkpt lat="48.573381670" lon="2.448528420"><ele></ele><time>2013-8-28T16:18:57Z</time></trkpt>
<trkpt lat="48.573475050" lon="2.448496740"><ele></ele><time>2013-8-28T16:19:0Z</time></trkpt>
<trkpt lat="48.573570100" lon="2.448470080"><ele></ele><time>2013-8-28T16:19:3Z</time></trkpt>
<trkpt lat="48.573668330" lon="2.448446780"><ele></ele><time>2013-8-28T16:19:6Z</time></trkpt>
<trkpt lat="48.573765060" lon="2.448430020"><ele></ele><time>2013-8-28T16:19:9Z</time></trkpt>
<trkpt lat="48.573865140" lon="2.448413420"><ele></ele><time>2013-8-28T16:19:12Z</time></trkpt>
<trkpt lat="48.573963380" lon="2.448400010"><ele></ele><time>2013-8-28T16:19:15Z</time></trkpt>
<trkpt lat="48.574063460" lon="2.448390120"><ele></ele><time>2013-8-28T16:19:18Z</time></trkpt>
<trkpt lat="48.574163370" lon="2.448385090"><ele></ele><time>2013-8-28T16:19:21Z</time></trkpt>
<trkpt lat="48.574263450" lon="2.448385090"><ele></ele><time>2013-8-28T16:19:24Z</time></trkpt>
<trkpt lat="48.574363360" lon="2.448385090"><ele></ele><time>2013-8-28T16:19:27Z</time></trkpt>
<trkpt lat="48.574455060" lon="2.448391800"><ele></ele><time>2013-8-28T16:19:30Z</time></trkpt>
<trkpt lat="48.574536700" lon="2.448403360"><ele></ele><time>2013-8-28T16:19:33Z</time></trkpt>
<trkpt lat="48.574605090" lon="2.448416780"><ele></ele><time>2013-8-28T16:19:36Z</time></trkpt>
<trkpt lat="48.574656730" lon="2.448433370"><ele></ele><time>2013-8-28T16:19:39Z</time></trkpt>
<trkpt lat="48.574701820" lon="2.448446780"><ele></ele><time>2013-8-28T16:19:42Z</time></trkpt>
<trkpt lat="48.574750100" lon="2.448460030"><ele></ele><time>2013-8-28T16:19:45Z</time></trkpt>
<trkpt lat="48.574803410" lon="2.448478470"><ele></ele><time>2013-8-28T16:19:48Z</time></trkpt>
<trkpt lat="48.574865100" lon="2.448495060"><ele></ele><time>2013-8-28T16:19:51Z</time></trkpt>
<trkpt lat="48.574926790" lon="2.448508470"><ele></ele><time>2013-8-28T16:19:54Z</time></trkpt>
<trkpt lat="48.574988480" lon="2.448513340"><ele></ele><time>2013-8-28T16:19:57Z</time></trkpt>
<trkpt lat="48.575053360" lon="2.448513340"><ele></ele><time>2013-8-28T16:20:0Z</time></trkpt>
<trkpt lat="48.575123430" lon="2.448510150"><ele></ele><time>2013-8-28T16:20:3Z</time></trkpt>
<trkpt lat="48.575196690" lon="2.448506800"><ele></ele><time>2013-8-28T16:20:6Z</time></trkpt>
<trkpt lat="48.575273470" lon="2.448501770"><ele></ele><time>2013-8-28T16:20:9Z</time></trkpt>
<trkpt lat="48.575351750" lon="2.448495060"><ele></ele><time>2013-8-28T16:20:12Z</time></trkpt>
<trkpt lat="48.575433390" lon="2.448490030"><ele></ele><time>2013-8-28T16:20:15Z</time></trkpt>
<trkpt lat="48.575516710" lon="2.448476790"><ele></ele><time>2013-8-28T16:20:18Z</time></trkpt>
<trkpt lat="48.575598350" lon="2.448460030"><ele></ele><time>2013-8-28T16:20:21Z</time></trkpt>
<trkpt lat="48.575680160" lon="2.448451810"><ele></ele><time>2013-8-28T16:20:24Z</time></trkpt>
<trkpt lat="48.575750060" lon="2.448486680"><ele></ele><time>2013-8-28T16:20:27Z</time></trkpt>
<trkpt lat="48.575810080" lon="2.448543340"><ele></ele><time>2013-8-28T16:20:30Z</time></trkpt>
<trkpt lat="48.575870090" lon="2.448563460"><ele></ele><time>2013-8-28T16:20:33Z</time></trkpt>
<trkpt lat="48.575953410" lon="2.448566810"><ele></ele><time>2013-8-28T16:20:36Z</time></trkpt>
<trkpt lat="48.575980060" lon="2.448448460"><ele></ele><time>2013-8-28T16:20:39Z</time></trkpt>
<trkpt lat="48.576008390" lon="2.448345030"><ele></ele><time>2013-8-28T16:20:42Z</time></trkpt>
<trkpt lat="48.576048460" lon="2.448256680"><ele></ele><time>2013-8-28T16:20:45Z</time></trkpt>
<trkpt lat="48.576085000" lon="2.448173370"><ele></ele><time>2013-8-28T16:20:48Z</time></trkpt>
<trkpt lat="48.576135130" lon="2.448073450"><ele></ele><time>2013-8-28T16:20:51Z</time></trkpt>
<trkpt lat="48.576163460" lon="2.448013440"><ele></ele><time>2013-8-28T16:20:54Z</time></trkpt>
<trkpt lat="48.576191790" lon="2.447950070"><ele></ele><time>2013-8-28T16:20:57Z</time></trkpt>
<trkpt lat="48.576223470" lon="2.447886700"><ele></ele><time>2013-8-28T16:21:0Z</time></trkpt>
<trkpt lat="48.576256670" lon="2.447820150"><ele></ele><time>2013-8-28T16:21:3Z</time></trkpt>
<trkpt lat="48.576285000" lon="2.447748400"><ele></ele><time>2013-8-28T16:21:6Z</time></trkpt>
<trkpt lat="48.576315000" lon="2.447673470"><ele></ele><time>2013-8-28T16:21:9Z</time></trkpt>
<trkpt lat="48.576335120" lon="2.447593340"><ele></ele><time>2013-8-28T16:21:12Z</time></trkpt>
<trkpt lat="48.576361770" lon="2.447516730"><ele></ele><time>2013-8-28T16:21:15Z</time></trkpt>
<trkpt lat="48.576390100" lon="2.447443470"><ele></ele><time>2013-8-28T16:21:18Z</time></trkpt>
<trkpt lat="48.576418440" lon="2.447370040"><ele></ele><time>2013-8-28T16:21:21Z</time></trkpt>
<trkpt lat="48.576448440" lon="2.447295110"><ele></ele><time>2013-8-28T16:21:24Z</time></trkpt>
<trkpt lat="48.576480130" lon="2.447226710"><ele></ele><time>2013-8-28T16:21:27Z</time></trkpt>
<trkpt lat="48.576516670" lon="2.447161670"><ele></ele><time>2013-8-28T16:21:30Z</time></trkpt>
<trkpt lat="48.576566800" lon="2.447105010"><ele></ele><time>2013-8-28T16:21:33Z</time></trkpt>
<trkpt lat="48.576626810" lon="2.447055050"><ele></ele><time>2013-8-28T16:21:36Z</time></trkpt>
<trkpt lat="48.576685150" lon="2.446996710"><ele></ele><time>2013-8-28T16:21:39Z</time></trkpt>
<trkpt lat="48.576740130" lon="2.446935020"><ele></ele><time>2013-8-28T16:21:42Z</time></trkpt>
<trkpt lat="48.576796790" lon="2.446871820"><ele></ele><time>2013-8-28T16:21:45Z</time></trkpt>
<trkpt lat="48.576850100" lon="2.446810130"><ele></ele><time>2013-8-28T16:21:48Z</time></trkpt>
<trkpt lat="48.576905090" lon="2.446748440"><ele></ele><time>2013-8-28T16:21:51Z</time></trkpt>
<trkpt lat="48.576956720" lon="2.446681720"><ele></ele><time>2013-8-28T16:21:54Z</time></trkpt>
<trkpt lat="48.576996790" lon="2.446608460"><ele></ele><time>2013-8-28T16:21:57Z</time></trkpt>
<trkpt lat="48.577025120" lon="2.446516770"><ele></ele><time>2013-8-28T16:22:0Z</time></trkpt>
<trkpt lat="48.577048420" lon="2.446415010"><ele></ele><time>2013-8-28T16:22:3Z</time></trkpt>
<trkpt lat="48.577085130" lon="2.446323480"><ele></ele><time>2013-8-28T16:22:6Z</time></trkpt>
<trkpt lat="48.577130060" lon="2.446246700"><ele></ele><time>2013-8-28T16:22:9Z</time></trkpt>
<trkpt lat="48.577188400" lon="2.446191720"><ele></ele><time>2013-8-28T16:22:12Z</time></trkpt>
<trkpt lat="48.577253440" lon="2.446150140"><ele></ele><time>2013-8-28T16:22:15Z</time></trkpt>
<trkpt lat="48.577315130" lon="2.446108400"><ele></ele><time>2013-8-28T16:22:18Z</time></trkpt>
<trkpt lat="48.577376820" lon="2.446065150"><ele></ele><time>2013-8-28T16:22:21Z</time></trkpt>
<trkpt lat="48.577440020" lon="2.446018380"><ele></ele><time>2013-8-28T16:22:24Z</time></trkpt>
<trkpt lat="48.577500040" lon="2.445968420"><ele></ele><time>2013-8-28T16:22:27Z</time></trkpt>
<trkpt lat="48.577563400" lon="2.445925000"><ele></ele><time>2013-8-28T16:22:30Z</time></trkpt>
<trkpt lat="48.577628450" lon="2.445873370"><ele></ele><time>2013-8-28T16:22:33Z</time></trkpt>
<trkpt lat="48.577690140" lon="2.445826770"><ele></ele><time>2013-8-28T16:22:36Z</time></trkpt>
<trkpt lat="48.577750150" lon="2.445781670"><ele></ele><time>2013-8-28T16:22:39Z</time></trkpt>
<trkpt lat="48.577815030" lon="2.445735070"><ele></ele><time>2013-8-28T16:22:42Z</time></trkpt>
<trkpt lat="48.577881750" lon="2.445683440"><ele></ele><time>2013-8-28T16:22:45Z</time></trkpt>
<trkpt lat="48.577946790" lon="2.445630130"><ele></ele><time>2013-8-28T16:22:48Z</time></trkpt>
<trkpt lat="48.578015020" lon="2.445576820"><ele></ele><time>2013-8-28T16:22:51Z</time></trkpt>
<trkpt lat="48.578083420" lon="2.445523340"><ele></ele><time>2013-8-28T16:22:54Z</time></trkpt>
<trkpt lat="48.578146780" lon="2.445468360"><ele></ele><time>2013-8-28T16:22:57Z</time></trkpt>
<trkpt lat="48.578210150" lon="2.445413370"><ele></ele><time>2013-8-28T16:23:0Z</time></trkpt>
<trkpt lat="48.578275030" lon="2.445368450"><ele></ele><time>2013-8-28T16:23:3Z</time></trkpt>
<trkpt lat="48.578335040" lon="2.445320000"><ele></ele><time>2013-8-28T16:23:6Z</time></trkpt>
<trkpt lat="48.578393380" lon="2.445270040"><ele></ele><time>2013-8-28T16:23:9Z</time></trkpt>
<trkpt lat="48.578451720" lon="2.445233330"><ele></ele><time>2013-8-28T16:23:12Z</time></trkpt>
<trkpt lat="48.578508380" lon="2.445206670"><ele></ele><time>2013-8-28T16:23:15Z</time></trkpt>
<trkpt lat="48.578558340" lon="2.445181700"><ele></ele><time>2013-8-28T16:23:18Z</time></trkpt>
<trkpt lat="48.578600080" lon="2.445135090"><ele></ele><time>2013-8-28T16:23:21Z</time></trkpt>
<trkpt lat="48.578638470" lon="2.445083460"><ele></ele><time>2013-8-28T16:23:24Z</time></trkpt>
<trkpt lat="48.578676690" lon="2.445036690"><ele></ele><time>2013-8-28T16:23:27Z</time></trkpt>
<trkpt lat="48.578755140" lon="2.444986730"><ele></ele><time>2013-8-28T16:23:30Z</time></trkpt>
<trkpt lat="48.578828400" lon="2.444935100"><ele></ele><time>2013-8-28T16:23:33Z</time></trkpt>
<trkpt lat="48.578878360" lon="2.444846760"><ele></ele><time>2013-8-28T16:23:36Z</time></trkpt>
<trkpt lat="48.578953460" lon="2.444808370"><ele></ele><time>2013-8-28T16:23:39Z</time></trkpt>
<trkpt lat="48.579015150" lon="2.444793450"><ele></ele><time>2013-8-28T16:23:42Z</time></trkpt>
<trkpt lat="48.579091760" lon="2.444760090"><ele></ele><time>2013-8-28T16:23:45Z</time></trkpt>
<trkpt lat="48.579160160" lon="2.444733430"><ele></ele><time>2013-8-28T16:23:48Z</time></trkpt>
<trkpt lat="48.579223360" lon="2.444691690"><ele></ele><time>2013-8-28T16:23:51Z</time></trkpt>
<trkpt lat="48.579286720" lon="2.444648440"><ele></ele><time>2013-8-28T16:23:54Z</time></trkpt>
<trkpt lat="48.579360150" lon="2.444611730"><ele></ele><time>2013-8-28T16:23:57Z</time></trkpt>
<trkpt lat="48.579435080" lon="2.444583400"><ele></ele><time>2013-8-28T16:24:0Z</time></trkpt>
<trkpt lat="48.579503480" lon="2.444545010"><ele></ele><time>2013-8-28T16:24:3Z</time></trkpt>
<trkpt lat="48.579548410" lon="2.444525060"><ele></ele><time>2013-8-28T16:24:6Z</time></trkpt>
<trkpt lat="48.579593330" lon="2.444505110"><ele></ele><time>2013-8-28T16:24:9Z</time></trkpt>
<trkpt lat="48.579675140" lon="2.444465040"><ele></ele><time>2013-8-28T16:24:12Z</time></trkpt>
<trkpt lat="48.579758460" lon="2.444440070"><ele></ele><time>2013-8-28T16:24:15Z</time></trkpt>
<trkpt lat="48.579831710" lon="2.444425150"><ele></ele><time>2013-8-28T16:24:18Z</time></trkpt>
<trkpt lat="48.579906820" lon="2.444398490"><ele></ele><time>2013-8-28T16:24:21Z</time></trkpt>
<trkpt lat="48.579980070" lon="2.444358430"><ele></ele><time>2013-8-28T16:24:24Z</time></trkpt>
<trkpt lat="48.580050150" lon="2.444336800"><ele></ele><time>2013-8-28T16:24:27Z</time></trkpt>
<trkpt lat="48.580090040" lon="2.444330090"><ele></ele><time>2013-8-28T16:24:30Z</time></trkpt>
<trkpt lat="48.580193480" lon="2.444280140"><ele></ele><time>2013-8-28T16:24:33Z</time></trkpt>
<trkpt lat="48.580255000" lon="2.444236720"><ele></ele><time>2013-8-28T16:24:36Z</time></trkpt>
<trkpt lat="48.580326750" lon="2.444200010"><ele></ele><time>2013-8-28T16:24:39Z</time></trkpt>
<trkpt lat="48.580396820" lon="2.444185090"><ele></ele><time>2013-8-28T16:24:42Z</time></trkpt>
<trkpt lat="48.580460020" lon="2.444156760"><ele></ele><time>2013-8-28T16:24:45Z</time></trkpt>
<trkpt lat="48.580520040" lon="2.444115020"><ele></ele><time>2013-8-28T16:24:48Z</time></trkpt>
<trkpt lat="48.580586760" lon="2.444076790"><ele></ele><time>2013-8-28T16:24:51Z</time></trkpt>
<trkpt lat="48.580660010" lon="2.444041760"><ele></ele><time>2013-8-28T16:24:54Z</time></trkpt>
<trkpt lat="48.580711810" lon="2.444018460"><ele></ele><time>2013-8-28T16:24:57Z</time></trkpt>
<trkpt lat="48.580790100" lon="2.443970010"><ele></ele><time>2013-8-28T16:25:0Z</time></trkpt>
<trkpt lat="48.580858330" lon="2.443933460"><ele></ele><time>2013-8-28T16:25:3Z</time></trkpt>
<trkpt lat="48.580925050" lon="2.443898430"><ele></ele><time>2013-8-28T16:25:6Z</time></trkpt>
<trkpt lat="48.581003340" lon="2.443861710"><ele></ele><time>2013-8-28T16:25:9Z</time></trkpt>
<trkpt lat="48.581083470" lon="2.443828350"><ele></ele><time>2013-8-28T16:25:12Z</time></trkpt>
<trkpt lat="48.581155050" lon="2.443791810"><ele></ele><time>2013-8-28T16:25:15Z</time></trkpt>
<trkpt lat="48.581230150" lon="2.443753420"><ele></ele><time>2013-8-28T16:25:18Z</time></trkpt>
<trkpt lat="48.581301730" lon="2.443708490"><ele></ele><time>2013-8-28T16:25:21Z</time></trkpt>
<trkpt lat="48.581366780" lon="2.443680160"><ele></ele><time>2013-8-28T16:25:24Z</time></trkpt>
<trkpt lat="48.581426790" lon="2.443653340"><ele></ele><time>2013-8-28T16:25:27Z</time></trkpt>
<trkpt lat="48.581491670" lon="2.443620150"><ele></ele><time>2013-8-28T16:25:30Z</time></trkpt>
<trkpt lat="48.581561740" lon="2.443591820"><ele></ele><time>2013-8-28T16:25:33Z</time></trkpt>
<trkpt lat="48.581626780" lon="2.443555100"><ele></ele><time>2013-8-28T16:25:36Z</time></trkpt>
<trkpt lat="48.581690150" lon="2.443520070"><ele></ele><time>2013-8-28T16:25:39Z</time></trkpt>
<trkpt lat="48.581756700" lon="2.443485030"><ele></ele><time>2013-8-28T16:25:42Z</time></trkpt>
<trkpt lat="48.581826770" lon="2.443451670"><ele></ele><time>2013-8-28T16:25:45Z</time></trkpt>
<trkpt lat="48.581888470" lon="2.443418480"><ele></ele><time>2013-8-28T16:25:48Z</time></trkpt>
<trkpt lat="48.581950160" lon="2.443386800"><ele></ele><time>2013-8-28T16:25:51Z</time></trkpt>
<trkpt lat="48.582016710" lon="2.443353440"><ele></ele><time>2013-8-28T16:25:54Z</time></trkpt>
<trkpt lat="48.582081750" lon="2.443316720"><ele></ele><time>2013-8-28T16:25:57Z</time></trkpt>
<trkpt lat="48.582141770" lon="2.443280010"><ele></ele><time>2013-8-28T16:26:0Z</time></trkpt>
<trkpt lat="48.582173450" lon="2.443260060"><ele></ele><time>2013-8-28T16:26:3Z</time></trkpt>
<trkpt lat="48.582255090" lon="2.443208430"><ele></ele><time>2013-8-28T16:26:6Z</time></trkpt>
<trkpt lat="48.582336730" lon="2.443160150"><ele></ele><time>2013-8-28T16:26:9Z</time></trkpt>
<trkpt lat="48.582418370" lon="2.443110030"><ele></ele><time>2013-8-28T16:26:12Z</time></trkpt>
<trkpt lat="48.582500010" lon="2.443060070"><ele></ele><time>2013-8-28T16:26:15Z</time></trkpt>
<trkpt lat="48.582556670" lon="2.443025030"><ele></ele><time>2013-8-28T16:26:18Z</time></trkpt>
<trkpt lat="48.582615010" lon="2.442993350"><ele></ele><time>2013-8-28T16:26:21Z</time></trkpt>
<trkpt lat="48.582673350" lon="2.442961670"><ele></ele><time>2013-8-28T16:26:24Z</time></trkpt>
<trkpt lat="48.582733360" lon="2.442928470"><ele></ele><time>2013-8-28T16:26:27Z</time></trkpt>
<trkpt lat="48.582791700" lon="2.442895110"><ele></ele><time>2013-8-28T16:26:30Z</time></trkpt>
<trkpt lat="48.582846680" lon="2.442861750"><ele></ele><time>2013-8-28T16:26:33Z</time></trkpt>
<trkpt lat="48.582905020" lon="2.442830070"><ele></ele><time>2013-8-28T16:26:36Z</time></trkpt>
<trkpt lat="48.582986660" lon="2.442786820"><ele></ele><time>2013-8-28T16:26:39Z</time></trkpt>
<trkpt lat="48.583041820" lon="2.442758490"><ele></ele><time>2013-8-28T16:26:42Z</time></trkpt>
<trkpt lat="48.583101660" lon="2.442733340"><ele></ele><time>2013-8-28T16:26:45Z</time></trkpt>
<trkpt lat="48.583165030" lon="2.442710040"><ele></ele><time>2013-8-28T16:26:48Z</time></trkpt>
<trkpt lat="48.583228400" lon="2.442688420"><ele></ele><time>2013-8-28T16:26:51Z</time></trkpt>
<trkpt lat="48.583291760" lon="2.442670140"><ele></ele><time>2013-8-28T16:26:54Z</time></trkpt>
<trkpt lat="48.583353450" lon="2.442655060"><ele></ele><time>2013-8-28T16:26:57Z</time></trkpt>
<trkpt lat="48.583418330" lon="2.442636780"><ele></ele><time>2013-8-28T16:27:0Z</time></trkpt>
<trkpt lat="48.583481700" lon="2.442616670"><ele></ele><time>2013-8-28T16:27:3Z</time></trkpt>
<trkpt lat="48.583546740" lon="2.442601750"><ele></ele><time>2013-8-28T16:27:6Z</time></trkpt>
<trkpt lat="48.583608430" lon="2.442581800"><ele></ele><time>2013-8-28T16:27:9Z</time></trkpt>
<trkpt lat="48.583668450" lon="2.442556820"><ele></ele><time>2013-8-28T16:27:12Z</time></trkpt>
<trkpt lat="48.583730140" lon="2.442538380"><ele></ele><time>2013-8-28T16:27:15Z</time></trkpt>
<trkpt lat="48.583816810" lon="2.442508370"><ele></ele><time>2013-8-28T16:27:18Z</time></trkpt>
<trkpt lat="48.583886710" lon="2.442485070"><ele></ele><time>2013-8-28T16:27:21Z</time></trkpt>
<trkpt lat="48.583966670" lon="2.442446680"><ele></ele><time>2013-8-28T16:27:24Z</time></trkpt>
<trkpt lat="48.583978410" lon="2.442431760"><ele></ele><time>2013-8-28T16:27:27Z</time></trkpt>
<trkpt lat="48.583826700" lon="2.442423380"><ele></ele><time>2013-8-28T16:27:30Z</time></trkpt>
<trkpt lat="48.583750090" lon="2.442441820"><ele></ele><time>2013-8-28T16:27:33Z</time></trkpt>
<trkpt lat="48.583816810" lon="2.442480040"><ele></ele><time>2013-8-28T16:27:36Z</time></trkpt>
<trkpt lat="48.583880010" lon="2.442440140"><ele></ele><time>2013-8-28T16:27:39Z</time></trkpt>
<trkpt lat="48.583941700" lon="2.442351800"><ele></ele><time>2013-8-28T16:27:42Z</time></trkpt>
<trkpt lat="48.583963490" lon="2.442293460"><ele></ele><time>2013-8-28T16:27:45Z</time></trkpt>
<trkpt lat="48.583980090" lon="2.442226740"><ele></ele><time>2013-8-28T16:27:48Z</time></trkpt>
<trkpt lat="48.583985120" lon="2.442151810"><ele></ele><time>2013-8-28T16:27:51Z</time></trkpt>
<trkpt lat="48.583983440" lon="2.442071670"><ele></ele><time>2013-8-28T16:27:54Z</time></trkpt>
<trkpt lat="48.583975060" lon="2.441988360"><ele></ele><time>2013-8-28T16:27:57Z</time></trkpt>
<trkpt lat="48.583970030" lon="2.441910070"><ele></ele><time>2013-8-28T16:28:0Z</time></trkpt>
<trkpt lat="48.583960140" lon="2.441831780"><ele></ele><time>2013-8-28T16:28:3Z</time></trkpt>
<trkpt lat="48.583950080" lon="2.441751820"><ele></ele><time>2013-8-28T16:28:6Z</time></trkpt>
<trkpt lat="48.583936670" lon="2.441671690"><ele></ele><time>2013-8-28T16:28:9Z</time></trkpt>
<trkpt lat="48.583923420" lon="2.441590050"><ele></ele><time>2013-8-28T16:28:12Z</time></trkpt>
<trkpt lat="48.583911690" lon="2.441510090"><ele></ele><time>2013-8-28T16:28:15Z</time></trkpt>
<trkpt lat="48.583900120" lon="2.441428450"><ele></ele><time>2013-8-28T16:28:18Z</time></trkpt>
<trkpt lat="48.583891740" lon="2.441346810"><ele></ele><time>2013-8-28T16:28:21Z</time></trkpt>
<trkpt lat="48.583881680" lon="2.441261820"><ele></ele><time>2013-8-28T16:28:24Z</time></trkpt>
<trkpt lat="48.583866760" lon="2.441173470"><ele></ele><time>2013-8-28T16:28:27Z</time></trkpt>
<trkpt lat="48.583858380" lon="2.441090150"><ele></ele><time>2013-8-28T16:28:30Z</time></trkpt>
<trkpt lat="48.583851680" lon="2.441005160"><ele></ele><time>2013-8-28T16:28:33Z</time></trkpt>
<trkpt lat="48.583850000" lon="2.440923350"><ele></ele><time>2013-8-28T16:28:36Z</time></trkpt>
<trkpt lat="48.583851680" lon="2.440841710"><ele></ele><time>2013-8-28T16:28:39Z</time></trkpt>
<trkpt lat="48.583858380" lon="2.440760070"><ele></ele><time>2013-8-28T16:28:42Z</time></trkpt>
<trkpt lat="48.583861730" lon="2.440675080"><ele></ele><time>2013-8-28T16:28:45Z</time></trkpt>
<trkpt lat="48.583868440" lon="2.440593440"><ele></ele><time>2013-8-28T16:28:48Z</time></trkpt>
<trkpt lat="48.583875140" lon="2.440513480"><ele></ele><time>2013-8-28T16:28:51Z</time></trkpt>
<trkpt lat="48.583883360" lon="2.440433350"><ele></ele><time>2013-8-28T16:28:54Z</time></trkpt>
<trkpt lat="48.583893420" lon="2.440355060"><ele></ele><time>2013-8-28T16:28:57Z</time></trkpt>
<trkpt lat="48.583901800" lon="2.440275100"><ele></ele><time>2013-8-28T16:29:0Z</time></trkpt>
<trkpt lat="48.583913370" lon="2.440196810"><ele></ele><time>2013-8-28T16:29:3Z</time></trkpt>
<trkpt lat="48.583915040" lon="2.440116680"><ele></ele><time>2013-8-28T16:29:6Z</time></trkpt>
<trkpt lat="48.583913370" lon="2.440038390"><ele></ele><time>2013-8-28T16:29:9Z</time></trkpt>
<trkpt lat="48.583913370" lon="2.439960110"><ele></ele><time>2013-8-28T16:29:12Z</time></trkpt>
<trkpt lat="48.583910010" lon="2.439885000"><ele></ele><time>2013-8-28T16:29:15Z</time></trkpt>
<trkpt lat="48.583905150" lon="2.439808390"><ele></ele><time>2013-8-28T16:29:18Z</time></trkpt>
<trkpt lat="48.583900120" lon="2.439731780"><ele></ele><time>2013-8-28T16:29:21Z</time></trkpt>
<trkpt lat="48.583895090" lon="2.439653500"><ele></ele><time>2013-8-28T16:29:24Z</time></trkpt>
<trkpt lat="48.583888390" lon="2.439576720"><ele></ele><time>2013-8-28T16:29:27Z</time></trkpt>
<trkpt lat="48.583880010" lon="2.439500110"><ele></ele><time>2013-8-28T16:29:30Z</time></trkpt>
<trkpt lat="48.583873470" lon="2.439423330"><ele></ele><time>2013-8-28T16:29:33Z</time></trkpt>
<trkpt lat="48.583866760" lon="2.439346720"><ele></ele><time>2013-8-28T16:29:36Z</time></trkpt>
<trkpt lat="48.583860060" lon="2.439271780"><ele></ele><time>2013-8-28T16:29:39Z</time></trkpt>
<trkpt lat="48.583853350" lon="2.439196680"><ele></ele><time>2013-8-28T16:29:42Z</time></trkpt>
<trkpt lat="48.583848490" lon="2.439125100"><ele></ele><time>2013-8-28T16:29:45Z</time></trkpt>
<trkpt lat="48.583843460" lon="2.439053350"><ele></ele><time>2013-8-28T16:29:48Z</time></trkpt>
<trkpt lat="48.583836760" lon="2.438983450"><ele></ele><time>2013-8-28T16:29:51Z</time></trkpt>
<trkpt lat="48.583826700" lon="2.438851680"><ele></ele><time>2013-8-28T16:29:54Z</time></trkpt>
<trkpt lat="48.583816810" lon="2.438740040"><ele></ele><time>2013-8-28T16:29:57Z</time></trkpt>
<trkpt lat="48.583840110" lon="2.438663430"><ele></ele><time>2013-8-28T16:30:0Z</time></trkpt>
<trkpt lat="48.583865090" lon="2.438558480"><ele></ele><time>2013-8-28T16:30:3Z</time></trkpt>
<trkpt lat="48.583915040" lon="2.438476680"><ele></ele><time>2013-8-28T16:30:6Z</time></trkpt>
<trkpt lat="48.584001710" lon="2.438475000"><ele></ele><time>2013-8-28T16:30:9Z</time></trkpt>
<trkpt lat="48.584085030" lon="2.438455050"><ele></ele><time>2013-8-28T16:30:12Z</time></trkpt>
<trkpt lat="48.584163480" lon="2.438441810"><ele></ele><time>2013-8-28T16:30:15Z</time></trkpt>
<trkpt lat="48.584225010" lon="2.438428400"><ele></ele><time>2013-8-28T16:30:18Z</time></trkpt>
<trkpt lat="48.584291730" lon="2.438413480"><ele></ele><time>2013-8-28T16:30:21Z</time></trkpt>
<trkpt lat="48.584366830" lon="2.438396710"><ele></ele><time>2013-8-28T16:30:24Z</time></trkpt>
<trkpt lat="48.584446790" lon="2.438376760"><ele></ele><time>2013-8-28T16:30:27Z</time></trkpt>
<trkpt lat="48.584526750" lon="2.438355140"><ele></ele><time>2013-8-28T16:30:30Z</time></trkpt>
<trkpt lat="48.584608390" lon="2.438336700"><ele></ele><time>2013-8-28T16:30:33Z</time></trkpt>
<trkpt lat="48.584691710" lon="2.438320100"><ele></ele><time>2013-8-28T16:30:36Z</time></trkpt>
<trkpt lat="48.584775030" lon="2.438300150"><ele></ele><time>2013-8-28T16:30:39Z</time></trkpt>
<trkpt lat="48.584861690" lon="2.438281710"><ele></ele><time>2013-8-28T16:30:42Z</time></trkpt>
<trkpt lat="48.584946690" lon="2.438258410"><ele></ele><time>2013-8-28T16:30:45Z</time></trkpt>
<trkpt lat="48.585031680" lon="2.438236790"><ele></ele><time>2013-8-28T16:30:48Z</time></trkpt>
<trkpt lat="48.585075100" lon="2.438223380"><ele></ele><time>2013-8-28T16:30:51Z</time></trkpt>
<trkpt lat="48.585121700" lon="2.438211810"><ele></ele><time>2013-8-28T16:30:54Z</time></trkpt>
<trkpt lat="48.585170150" lon="2.438198400"><ele></ele><time>2013-8-28T16:30:57Z</time></trkpt>
<trkpt lat="48.585218430" lon="2.438185150"><ele></ele><time>2013-8-28T16:31:0Z</time></trkpt>
<trkpt lat="48.585268380" lon="2.438170070"><ele></ele><time>2013-8-28T16:31:3Z</time></trkpt>
<trkpt lat="48.585316660" lon="2.438153470"><ele></ele><time>2013-8-28T16:31:6Z</time></trkpt>
<trkpt lat="48.585368460" lon="2.438138380"><ele></ele><time>2013-8-28T16:31:9Z</time></trkpt>
<trkpt lat="48.585418420" lon="2.438121790"><ele></ele><time>2013-8-28T16:31:12Z</time></trkpt>
<trkpt lat="48.585468380" lon="2.438101670"><ele></ele><time>2013-8-28T16:31:15Z</time></trkpt>
<trkpt lat="48.585518330" lon="2.438081720"><ele></ele><time>2013-8-28T16:31:18Z</time></trkpt>
<trkpt lat="48.585566780" lon="2.438061770"><ele></ele><time>2013-8-28T16:31:21Z</time></trkpt>
<trkpt lat="48.585615060" lon="2.438036790"><ele></ele><time>2013-8-28T16:31:24Z</time></trkpt>
<trkpt lat="48.585665020" lon="2.438011820"><ele></ele><time>2013-8-28T16:31:27Z</time></trkpt>
<trkpt lat="48.585715140" lon="2.437986670"><ele></ele><time>2013-8-28T16:31:30Z</time></trkpt>
<trkpt lat="48.585765100" lon="2.437963370"><ele></ele><time>2013-8-28T16:31:33Z</time></trkpt>
<trkpt lat="48.585815050" lon="2.437935040"><ele></ele><time>2013-8-28T16:31:36Z</time></trkpt>
<trkpt lat="48.585858470" lon="2.437896820"><ele></ele><time>2013-8-28T16:31:39Z</time></trkpt>
<trkpt lat="48.585898370" lon="2.437848370"><ele></ele><time>2013-8-28T16:31:42Z</time></trkpt>
<trkpt lat="48.585935080" lon="2.437795060"><ele></ele><time>2013-8-28T16:31:45Z</time></trkpt>
<trkpt lat="48.585971790" lon="2.437740080"><ele></ele><time>2013-8-28T16:31:48Z</time></trkpt>
<trkpt lat="48.586008340" lon="2.437683410"><ele></ele><time>2013-8-28T16:31:51Z</time></trkpt>
<trkpt lat="48.586046730" lon="2.437628430"><ele></ele><time>2013-8-28T16:31:54Z</time></trkpt>
<trkpt lat="48.586086790" lon="2.437575120"><ele></ele><time>2013-8-28T16:31:57Z</time></trkpt>
<trkpt lat="48.586125010" lon="2.437520130"><ele></ele><time>2013-8-28T16:32:0Z</time></trkpt>
<trkpt lat="48.586163400" lon="2.437465150"><ele></ele><time>2013-8-28T16:32:3Z</time></trkpt>
<trkpt lat="48.586205150" lon="2.437410000"><ele></ele><time>2013-8-28T16:32:6Z</time></trkpt>
<trkpt lat="48.586243370" lon="2.437355010"><ele></ele><time>2013-8-28T16:32:9Z</time></trkpt>
<trkpt lat="48.586281760" lon="2.437301700"><ele></ele><time>2013-8-28T16:32:12Z</time></trkpt>
<trkpt lat="48.586318470" lon="2.437243360"><ele></ele><time>2013-8-28T16:32:15Z</time></trkpt>
<trkpt lat="48.586356690" lon="2.437191730"><ele></ele><time>2013-8-28T16:32:18Z</time></trkpt>
<trkpt lat="48.586393400" lon="2.437138420"><ele></ele><time>2013-8-28T16:32:21Z</time></trkpt>
<trkpt lat="48.586431790" lon="2.437085110"><ele></ele><time>2013-8-28T16:32:24Z</time></trkpt>
<trkpt lat="48.586470010" lon="2.437031800"><ele></ele><time>2013-8-28T16:32:27Z</time></trkpt>
<trkpt lat="48.586508400" lon="2.436978500"><ele></ele><time>2013-8-28T16:32:30Z</time></trkpt>
<trkpt lat="48.586548470" lon="2.436925020"><ele></ele><time>2013-8-28T16:32:33Z</time></trkpt>
<trkpt lat="48.586590040" lon="2.436873390"><ele></ele><time>2013-8-28T16:32:36Z</time></trkpt>
<trkpt lat="48.586630110" lon="2.436821750"><ele></ele><time>2013-8-28T16:32:39Z</time></trkpt>
<trkpt lat="48.586668330" lon="2.436773470"><ele></ele><time>2013-8-28T16:32:42Z</time></trkpt>
<trkpt lat="48.586706720" lon="2.436725030"><ele></ele><time>2013-8-28T16:32:45Z</time></trkpt>
<trkpt lat="48.586745110" lon="2.436675070"><ele></ele><time>2013-8-28T16:32:48Z</time></trkpt>
<trkpt lat="48.586783330" lon="2.436625110"><ele></ele><time>2013-8-28T16:32:51Z</time></trkpt>
<trkpt lat="48.586821720" lon="2.436571810"><ele></ele><time>2013-8-28T16:32:54Z</time></trkpt>
<trkpt lat="48.586860110" lon="2.436520010"><ele></ele><time>2013-8-28T16:32:57Z</time></trkpt>
<trkpt lat="48.586898330" lon="2.436468370"><ele></ele><time>2013-8-28T16:33:0Z</time></trkpt>
<trkpt lat="48.586938390" lon="2.436418420"><ele></ele><time>2013-8-28T16:33:3Z</time></trkpt>
<trkpt lat="48.586976780" lon="2.436366780"><ele></ele><time>2013-8-28T16:33:6Z</time></trkpt>
<trkpt lat="48.587016680" lon="2.436318340"><ele></ele><time>2013-8-28T16:33:9Z</time></trkpt>
<trkpt lat="48.587053390" lon="2.436266700"><ele></ele><time>2013-8-28T16:33:12Z</time></trkpt>
<trkpt lat="48.587091780" lon="2.436216750"><ele></ele><time>2013-8-28T16:33:15Z</time></trkpt>
<trkpt lat="48.587130010" lon="2.436165120"><ele></ele><time>2013-8-28T16:33:18Z</time></trkpt>
<trkpt lat="48.587168390" lon="2.436116670"><ele></ele><time>2013-8-28T16:33:21Z</time></trkpt>
<trkpt lat="48.587205110" lon="2.436066710"><ele></ele><time>2013-8-28T16:33:24Z</time></trkpt>
<trkpt lat="48.587245000" lon="2.436018430"><ele></ele><time>2013-8-28T16:33:27Z</time></trkpt>
<trkpt lat="48.587283390" lon="2.435968480"><ele></ele><time>2013-8-28T16:33:30Z</time></trkpt>
<trkpt lat="48.587325140" lon="2.435920030"><ele></ele><time>2013-8-28T16:33:33Z</time></trkpt>
<trkpt lat="48.587365030" lon="2.435871750"><ele></ele><time>2013-8-28T16:33:36Z</time></trkpt>
<trkpt lat="48.587410130" lon="2.435823470"><ele></ele><time>2013-8-28T16:33:39Z</time></trkpt>
<trkpt lat="48.587455060" lon="2.435775020"><ele></ele><time>2013-8-28T16:33:42Z</time></trkpt>
<trkpt lat="48.587493440" lon="2.435723390"><ele></ele><time>2013-8-28T16:33:45Z</time></trkpt>
<trkpt lat="48.587540050" lon="2.435675110"><ele></ele><time>2013-8-28T16:33:48Z</time></trkpt>
<trkpt lat="48.587580110" lon="2.435621800"><ele></ele><time>2013-8-28T16:33:51Z</time></trkpt>
<trkpt lat="48.587620010" lon="2.435568490"><ele></ele><time>2013-8-28T16:33:54Z</time></trkpt>
<trkpt lat="48.587660080" lon="2.435513340"><ele></ele><time>2013-8-28T16:33:57Z</time></trkpt>
<trkpt lat="48.587701820" lon="2.435461710"><ele></ele><time>2013-8-28T16:34:0Z</time></trkpt>
<trkpt lat="48.587741720" lon="2.435410070"><ele></ele><time>2013-8-28T16:34:3Z</time></trkpt>
<trkpt lat="48.587780110" lon="2.435358440"><ele></ele><time>2013-8-28T16:34:6Z</time></trkpt>
<trkpt lat="48.587816820" lon="2.435305130"><ele></ele><time>2013-8-28T16:34:9Z</time></trkpt>
<trkpt lat="48.587853360" lon="2.435255010"><ele></ele><time>2013-8-28T16:34:12Z</time></trkpt>
<trkpt lat="48.587890080" lon="2.435205050"><ele></ele><time>2013-8-28T16:34:15Z</time></trkpt>
<trkpt lat="48.587925110" lon="2.435155100"><ele></ele><time>2013-8-28T16:34:18Z</time></trkpt>
<trkpt lat="48.587961830" lon="2.435103460"><ele></ele><time>2013-8-28T16:34:21Z</time></trkpt>
<trkpt lat="48.587996690" lon="2.435053340"><ele></ele><time>2013-8-28T16:34:24Z</time></trkpt>
<trkpt lat="48.588035080" lon="2.435003380"><ele></ele><time>2013-8-28T16:34:27Z</time></trkpt>
<trkpt lat="48.588070120" lon="2.434953430"><ele></ele><time>2013-8-28T16:34:30Z</time></trkpt>
<trkpt lat="48.588108340" lon="2.434903470"><ele></ele><time>2013-8-28T16:34:33Z</time></trkpt>
<trkpt lat="48.588148410" lon="2.434851670"><ele></ele><time>2013-8-28T16:34:36Z</time></trkpt>
<trkpt lat="48.588188470" lon="2.434800040"><ele></ele><time>2013-8-28T16:34:39Z</time></trkpt>
<trkpt lat="48.588228370" lon="2.434746730"><ele></ele><time>2013-8-28T16:34:42Z</time></trkpt>
<trkpt lat="48.588266760" lon="2.434693420"><ele></ele><time>2013-8-28T16:34:45Z</time></trkpt>
<trkpt lat="48.588306820" lon="2.434640110"><ele></ele><time>2013-8-28T16:34:48Z</time></trkpt>
<trkpt lat="48.588343370" lon="2.434590160"><ele></ele><time>2013-8-28T16:34:51Z</time></trkpt>
<trkpt lat="48.588380080" lon="2.434538360"><ele></ele><time>2013-8-28T16:34:54Z</time></trkpt>
<trkpt lat="48.588420150" lon="2.434486720"><ele></ele><time>2013-8-28T16:34:57Z</time></trkpt>
<trkpt lat="48.588456690" lon="2.434435090"><ele></ele><time>2013-8-28T16:35:0Z</time></trkpt>
<trkpt lat="48.588493410" lon="2.434385130"><ele></ele><time>2013-8-28T16:35:3Z</time></trkpt>
<trkpt lat="48.588531790" lon="2.434335010"><ele></ele><time>2013-8-28T16:35:6Z</time></trkpt>
<trkpt lat="48.588570020" lon="2.434285050"><ele></ele><time>2013-8-28T16:35:9Z</time></trkpt>
<trkpt lat="48.588603380" lon="2.434233420"><ele></ele><time>2013-8-28T16:35:12Z</time></trkpt>
<trkpt lat="48.588638410" lon="2.434185140"><ele></ele><time>2013-8-28T16:35:15Z</time></trkpt>
<trkpt lat="48.588671770" lon="2.434136690"><ele></ele><time>2013-8-28T16:35:18Z</time></trkpt>
<trkpt lat="48.588708490" lon="2.434085060"><ele></ele><time>2013-8-28T16:35:21Z</time></trkpt>
<trkpt lat="48.588745030" lon="2.434038460"><ele></ele><time>2013-8-28T16:35:24Z</time></trkpt>
<trkpt lat="48.588781740" lon="2.433988340"><ele></ele><time>2013-8-28T16:35:27Z</time></trkpt>
<trkpt lat="48.588818460" lon="2.433940060"><ele></ele><time>2013-8-28T16:35:30Z</time></trkpt>
<trkpt lat="48.588855000" lon="2.433890100"><ele></ele><time>2013-8-28T16:35:33Z</time></trkpt>
<trkpt lat="48.588893390" lon="2.433841820"><ele></ele><time>2013-8-28T16:35:36Z</time></trkpt>
<trkpt lat="48.588930100" lon="2.433793370"><ele></ele><time>2013-8-28T16:35:39Z</time></trkpt>
<trkpt lat="48.588966820" lon="2.433745090"><ele></ele><time>2013-8-28T16:35:42Z</time></trkpt>
<trkpt lat="48.589005040" lon="2.433695140"><ele></ele><time>2013-8-28T16:35:45Z</time></trkpt>
<trkpt lat="48.589043430" lon="2.433645010"><ele></ele><time>2013-8-28T16:35:48Z</time></trkpt>
<trkpt lat="48.589080140" lon="2.433595060"><ele></ele><time>2013-8-28T16:35:51Z</time></trkpt>
<trkpt lat="48.589116680" lon="2.433543420"><ele></ele><time>2013-8-28T16:35:54Z</time></trkpt>
<trkpt lat="48.589155070" lon="2.433493470"><ele></ele><time>2013-8-28T16:35:57Z</time></trkpt>
<trkpt lat="48.589193460" lon="2.433443340"><ele></ele><time>2013-8-28T16:36:0Z</time></trkpt>
<trkpt lat="48.589233360" lon="2.433391710"><ele></ele><time>2013-8-28T16:36:3Z</time></trkpt>
<trkpt lat="48.589271750" lon="2.433340080"><ele></ele><time>2013-8-28T16:36:6Z</time></trkpt>
<trkpt lat="48.589311810" lon="2.433291800"><ele></ele><time>2013-8-28T16:36:9Z</time></trkpt>
<trkpt lat="48.589348360" lon="2.433243350"><ele></ele><time>2013-8-28T16:36:12Z</time></trkpt>
<trkpt lat="48.589386750" lon="2.433195070"><ele></ele><time>2013-8-28T16:36:15Z</time></trkpt>
<trkpt lat="48.589423460" lon="2.433146790"><ele></ele><time>2013-8-28T16:36:18Z</time></trkpt>
<trkpt lat="48.589461680" lon="2.433098340"><ele></ele><time>2013-8-28T16:36:21Z</time></trkpt>
<trkpt lat="48.589498400" lon="2.433050060"><ele></ele><time>2013-8-28T16:36:24Z</time></trkpt>
<trkpt lat="48.589535110" lon="2.432998430"><ele></ele><time>2013-8-28T16:36:27Z</time></trkpt>
<trkpt lat="48.589571820" lon="2.432948480"><ele></ele><time>2013-8-28T16:36:30Z</time></trkpt>
<trkpt lat="48.589608370" lon="2.432896680"><ele></ele><time>2013-8-28T16:36:33Z</time></trkpt>
<trkpt lat="48.589645080" lon="2.432846720"><ele></ele><time>2013-8-28T16:36:36Z</time></trkpt>
<trkpt lat="48.589681790" lon="2.432793410"><ele></ele><time>2013-8-28T16:36:39Z</time></trkpt>
<trkpt lat="48.589720010" lon="2.432743450"><ele></ele><time>2013-8-28T16:36:42Z</time></trkpt>
<trkpt lat="48.589756730" lon="2.432693330"><ele></ele><time>2013-8-28T16:36:45Z</time></trkpt>
<trkpt lat="48.589795120" lon="2.432643380"><ele></ele><time>2013-8-28T16:36:48Z</time></trkpt>
<trkpt lat="48.589833340" lon="2.432591740"><ele></ele><time>2013-8-28T16:36:51Z</time></trkpt>
<trkpt lat="48.589870050" lon="2.432541790"><ele></ele><time>2013-8-28T16:36:54Z</time></trkpt>
<trkpt lat="48.589905090" lon="2.432491660"><ele></ele><time>2013-8-28T16:36:57Z</time></trkpt>
<trkpt lat="48.589941800" lon="2.432441710"><ele></ele><time>2013-8-28T16:37:0Z</time></trkpt>
<trkpt lat="48.589980020" lon="2.432391750"><ele></ele><time>2013-8-28T16:37:3Z</time></trkpt>
<trkpt lat="48.590018410" lon="2.432345150"><ele></ele><time>2013-8-28T16:37:6Z</time></trkpt>
<trkpt lat="48.590055120" lon="2.432300050"><ele></ele><time>2013-8-28T16:37:9Z</time></trkpt>
<trkpt lat="48.590095020" lon="2.432261660"><ele></ele><time>2013-8-28T16:37:12Z</time></trkpt>
<trkpt lat="48.590136760" lon="2.432226790"><ele></ele><time>2013-8-28T16:37:15Z</time></trkpt>
<trkpt lat="48.590178340" lon="2.432191760"><ele></ele><time>2013-8-28T16:37:18Z</time></trkpt>
<trkpt lat="48.590220080" lon="2.432156720"><ele></ele><time>2013-8-28T16:37:21Z</time></trkpt>
<trkpt lat="48.590261820" lon="2.432116820"><ele></ele><time>2013-8-28T16:37:24Z</time></trkpt>
<trkpt lat="48.590305070" lon="2.432073410"><ele></ele><time>2013-8-28T16:37:27Z</time></trkpt>
<trkpt lat="48.590348490" lon="2.432030150"><ele></ele><time>2013-8-28T16:37:30Z</time></trkpt>
<trkpt lat="48.590390060" lon="2.431983380"><ele></ele><time>2013-8-28T16:37:33Z</time></trkpt>
<trkpt lat="48.590433480" lon="2.431930080"><ele></ele><time>2013-8-28T16:37:36Z</time></trkpt>
<trkpt lat="48.590485110" lon="2.431870060"><ele></ele><time>2013-8-28T16:37:39Z</time></trkpt>
<trkpt lat="48.590533390" lon="2.431803340"><ele></ele><time>2013-8-28T16:37:42Z</time></trkpt>
<trkpt lat="48.590581670" lon="2.431770150"><ele></ele><time>2013-8-28T16:37:45Z</time></trkpt>
<trkpt lat="48.590670020" lon="2.431745000"><ele></ele><time>2013-8-28T16:37:48Z</time></trkpt>
<trkpt lat="48.590715110" lon="2.431768470"><ele></ele><time>2013-8-28T16:37:51Z</time></trkpt>
<trkpt lat="48.590778480" lon="2.431853460"><ele></ele><time>2013-8-28T16:37:54Z</time></trkpt>
<trkpt lat="48.590821730" lon="2.431935100"><ele></ele><time>2013-8-28T16:37:57Z</time></trkpt>
<trkpt lat="48.590863470" lon="2.432006690"><ele></ele><time>2013-8-28T16:38:0Z</time></trkpt>
<trkpt lat="48.590921810" lon="2.432101740"><ele></ele><time>2013-8-28T16:38:3Z</time></trkpt>
<trkpt lat="48.590983330" lon="2.432161750"><ele></ele><time>2013-8-28T16:38:6Z</time></trkpt>
<trkpt lat="48.591031780" lon="2.432233330"><ele></ele><time>2013-8-28T16:38:9Z</time></trkpt>
<trkpt lat="48.591101690" lon="2.432300050"><ele></ele><time>2013-8-28T16:38:12Z</time></trkpt>
<trkpt lat="48.591175110" lon="2.432370120"><ele></ele><time>2013-8-28T16:38:15Z</time></trkpt>
<trkpt lat="48.591228420" lon="2.432410020"><ele></ele><time>2013-8-28T16:38:18Z</time></trkpt>
<trkpt lat="48.591286760" lon="2.432450090"><ele></ele><time>2013-8-28T16:38:21Z</time></trkpt>
<trkpt lat="48.591345100" lon="2.432498370"><ele></ele><time>2013-8-28T16:38:24Z</time></trkpt>
<trkpt lat="48.591408460" lon="2.432536760"><ele></ele><time>2013-8-28T16:38:27Z</time></trkpt>
<trkpt lat="48.591470150" lon="2.432576820"><ele></ele><time>2013-8-28T16:38:30Z</time></trkpt>
<trkpt lat="48.591533350" lon="2.432616720"><ele></ele><time>2013-8-28T16:38:33Z</time></trkpt>
<trkpt lat="48.591600070" lon="2.432661820"><ele></ele><time>2013-8-28T16:38:36Z</time></trkpt>
<trkpt lat="48.591670150" lon="2.432705070"><ele></ele><time>2013-8-28T16:38:39Z</time></trkpt>
<trkpt lat="48.591745080" lon="2.432748480"><ele></ele><time>2013-8-28T16:38:42Z</time></trkpt>
<trkpt lat="48.591818340" lon="2.432795090"><ele></ele><time>2013-8-28T16:38:45Z</time></trkpt>
<trkpt lat="48.591890090" lon="2.432851750"><ele></ele><time>2013-8-28T16:38:48Z</time></trkpt>
<trkpt lat="48.591970050" lon="2.432898350"><ele></ele><time>2013-8-28T16:38:51Z</time></trkpt>
<trkpt lat="48.592050010" lon="2.432946800"><ele></ele><time>2013-8-28T16:38:54Z</time></trkpt>
<trkpt lat="48.592130150" lon="2.432993400"><ele></ele><time>2013-8-28T16:38:57Z</time></trkpt>
<trkpt lat="48.592210110" lon="2.433038330"><ele></ele><time>2013-8-28T16:39:0Z</time></trkpt>
<trkpt lat="48.592248330" lon="2.433068340"><ele></ele><time>2013-8-28T16:39:3Z</time></trkpt>
<trkpt lat="48.592326790" lon="2.433140090"><ele></ele><time>2013-8-28T16:39:6Z</time></trkpt>
<trkpt lat="48.592401720" lon="2.433206810"><ele></ele><time>2013-8-28T16:39:9Z</time></trkpt>
<trkpt lat="48.592443460" lon="2.433238490"><ele></ele><time>2013-8-28T16:39:12Z</time></trkpt>
<trkpt lat="48.592480010" lon="2.433275040"><ele></ele><time>2013-8-28T16:39:15Z</time></trkpt>
<trkpt lat="48.592520070" lon="2.433310070"><ele></ele><time>2013-8-28T16:39:18Z</time></trkpt>
<trkpt lat="48.592560140" lon="2.433343430"><ele></ele><time>2013-8-28T16:39:21Z</time></trkpt>
<trkpt lat="48.592603390" lon="2.433378470"><ele></ele><time>2013-8-28T16:39:24Z</time></trkpt>
<trkpt lat="48.592641780" lon="2.433415010"><ele></ele><time>2013-8-28T16:39:27Z</time></trkpt>
<trkpt lat="48.592683350" lon="2.433453400"><ele></ele><time>2013-8-28T16:39:30Z</time></trkpt>
<trkpt lat="48.592723420" lon="2.433491790"><ele></ele><time>2013-8-28T16:39:33Z</time></trkpt>
<trkpt lat="48.592761810" lon="2.433531690"><ele></ele><time>2013-8-28T16:39:36Z</time></trkpt>
<trkpt lat="48.592805060" lon="2.433570080"><ele></ele><time>2013-8-28T16:39:39Z</time></trkpt>
<trkpt lat="48.592848470" lon="2.433608470"><ele></ele><time>2013-8-28T16:39:42Z</time></trkpt>
<trkpt lat="48.592888370" lon="2.433648370"><ele></ele><time>2013-8-28T16:39:45Z</time></trkpt>
<trkpt lat="48.592930110" lon="2.433690110"><ele></ele><time>2013-8-28T16:39:48Z</time></trkpt>
<trkpt lat="48.592970010" lon="2.433730000"><ele></ele><time>2013-8-28T16:39:51Z</time></trkpt>
<trkpt lat="48.593010080" lon="2.433771750"><ele></ele><time>2013-8-28T16:39:54Z</time></trkpt>
<trkpt lat="48.593053330" lon="2.433811810"><ele></ele><time>2013-8-28T16:39:57Z</time></trkpt>
<trkpt lat="48.593096750" lon="2.433853390"><ele></ele><time>2013-8-28T16:40:0Z</time></trkpt>
<trkpt lat="48.593165140" lon="2.433921780"><ele></ele><time>2013-8-28T16:40:3Z</time></trkpt>
<trkpt lat="48.593230020" lon="2.433985150"><ele></ele><time>2013-8-28T16:40:6Z</time></trkpt>
<trkpt lat="48.593306800" lon="2.434053380"><ele></ele><time>2013-8-28T16:40:9Z</time></trkpt>
<trkpt lat="48.593350050" lon="2.434086740"><ele></ele><time>2013-8-28T16:40:12Z</time></trkpt>
<trkpt lat="48.593390110" lon="2.434120100"><ele></ele><time>2013-8-28T16:40:15Z</time></trkpt>
<trkpt lat="48.593428330" lon="2.434155140"><ele></ele><time>2013-8-28T16:40:18Z</time></trkpt>
<trkpt lat="48.593466720" lon="2.434191680"><ele></ele><time>2013-8-28T16:40:21Z</time></trkpt>
<trkpt lat="48.593506790" lon="2.434228390"><ele></ele><time>2013-8-28T16:40:24Z</time></trkpt>
<trkpt lat="48.593546690" lon="2.434266780"><ele></ele><time>2013-8-28T16:40:27Z</time></trkpt>
<trkpt lat="48.593590110" lon="2.434308360"><ele></ele><time>2013-8-28T16:40:30Z</time></trkpt>
<trkpt lat="48.593631680" lon="2.434348420"><ele></ele><time>2013-8-28T16:40:33Z</time></trkpt>
<trkpt lat="48.593675100" lon="2.434390000"><ele></ele><time>2013-8-28T16:40:36Z</time></trkpt>
<trkpt lat="48.593718350" lon="2.434431740"><ele></ele><time>2013-8-28T16:40:39Z</time></trkpt>
<trkpt lat="48.593761770" lon="2.434470130"><ele></ele><time>2013-8-28T16:40:42Z</time></trkpt>
<trkpt lat="48.593803340" lon="2.434511700"><ele></ele><time>2013-8-28T16:40:45Z</time></trkpt>
<trkpt lat="48.593846760" lon="2.434553440"><ele></ele><time>2013-8-28T16:40:48Z</time></trkpt>
<trkpt lat="48.593891690" lon="2.434593340"><ele></ele><time>2013-8-28T16:40:51Z</time></trkpt>
<trkpt lat="48.593938460" lon="2.434633410"><ele></ele><time>2013-8-28T16:40:54Z</time></trkpt>
<trkpt lat="48.593983380" lon="2.434676820"><ele></ele><time>2013-8-28T16:40:57Z</time></trkpt>
<trkpt lat="48.594025130" lon="2.434721750"><ele></ele><time>2013-8-28T16:41:0Z</time></trkpt>
<trkpt lat="48.594066700" lon="2.434766680"><ele></ele><time>2013-8-28T16:41:3Z</time></trkpt>
<trkpt lat="48.594106770" lon="2.434806740"><ele></ele><time>2013-8-28T16:41:6Z</time></trkpt>
<trkpt lat="48.594148340" lon="2.434846810"><ele></ele><time>2013-8-28T16:41:9Z</time></trkpt>
<trkpt lat="48.594191760" lon="2.434888380"><ele></ele><time>2013-8-28T16:41:12Z</time></trkpt>
<trkpt lat="48.594245070" lon="2.434938340"><ele></ele><time>2013-8-28T16:41:15Z</time></trkpt>
<trkpt lat="48.594291670" lon="2.434985110"><ele></ele><time>2013-8-28T16:41:18Z</time></trkpt>
<trkpt lat="48.594335090" lon="2.435031710"><ele></ele><time>2013-8-28T16:41:21Z</time></trkpt>
<trkpt lat="48.594380020" lon="2.435075130"><ele></ele><time>2013-8-28T16:41:24Z</time></trkpt>
<trkpt lat="48.594425110" lon="2.435115030"><ele></ele><time>2013-8-28T16:41:27Z</time></trkpt>
<trkpt lat="48.594468360" lon="2.435158450"><ele></ele><time>2013-8-28T16:41:30Z</time></trkpt>
<trkpt lat="48.594511780" lon="2.435201700"><ele></ele><time>2013-8-28T16:41:33Z</time></trkpt>
<trkpt lat="48.594555030" lon="2.435245120"><ele></ele><time>2013-8-28T16:41:36Z</time></trkpt>
<trkpt lat="48.594601800" lon="2.435291720"><ele></ele><time>2013-8-28T16:41:39Z</time></trkpt>
<trkpt lat="48.594645050" lon="2.435340000"><ele></ele><time>2013-8-28T16:41:42Z</time></trkpt>
<trkpt lat="48.594688470" lon="2.435383420"><ele></ele><time>2013-8-28T16:41:45Z</time></trkpt>
<trkpt lat="48.594731720" lon="2.435426670"><ele></ele><time>2013-8-28T16:41:48Z</time></trkpt>
<trkpt lat="48.594776820" lon="2.435470090"><ele></ele><time>2013-8-28T16:41:51Z</time></trkpt>
<trkpt lat="48.594820070" lon="2.435513340"><ele></ele><time>2013-8-28T16:41:54Z</time></trkpt>
<trkpt lat="48.594866670" lon="2.435560110"><ele></ele><time>2013-8-28T16:41:57Z</time></trkpt>
<trkpt lat="48.594913440" lon="2.435608390"><ele></ele><time>2013-8-28T16:42:0Z</time></trkpt>
<trkpt lat="48.594960040" lon="2.435653480"><ele></ele><time>2013-8-28T16:42:3Z</time></trkpt>
<trkpt lat="48.595008490" lon="2.435700090"><ele></ele><time>2013-8-28T16:42:6Z</time></trkpt>
<trkpt lat="48.595058450" lon="2.435743340"><ele></ele><time>2013-8-28T16:42:9Z</time></trkpt>
<trkpt lat="48.595106730" lon="2.435786760"><ele></ele><time>2013-8-28T16:42:12Z</time></trkpt>
<trkpt lat="48.595156680" lon="2.435830010"><ele></ele><time>2013-8-28T16:42:15Z</time></trkpt>
<trkpt lat="48.595203450" lon="2.435873430"><ele></ele><time>2013-8-28T16:42:18Z</time></trkpt>
<trkpt lat="48.595250060" lon="2.435916680"><ele></ele><time>2013-8-28T16:42:21Z</time></trkpt>
<trkpt lat="48.595295150" lon="2.435960090"><ele></ele><time>2013-8-28T16:42:24Z</time></trkpt>
<trkpt lat="48.595341760" lon="2.436005020"><ele></ele><time>2013-8-28T16:42:27Z</time></trkpt>
<trkpt lat="48.595390040" lon="2.436046760"><ele></ele><time>2013-8-28T16:42:30Z</time></trkpt>
<trkpt lat="48.595441670" lon="2.436090010"><ele></ele><time>2013-8-28T16:42:33Z</time></trkpt>
<trkpt lat="48.595488440" lon="2.436133430"><ele></ele><time>2013-8-28T16:42:36Z</time></trkpt>
<trkpt lat="48.595531690" lon="2.436171820"><ele></ele><time>2013-8-28T16:42:39Z</time></trkpt>
<trkpt lat="48.595576780" lon="2.436208370"><ele></ele><time>2013-8-28T16:42:42Z</time></trkpt>
<trkpt lat="48.595623390" lon="2.436243400"><ele></ele><time>2013-8-28T16:42:45Z</time></trkpt>
<trkpt lat="48.595683400" lon="2.436273410"><ele></ele><time>2013-8-28T16:42:48Z</time></trkpt>
<trkpt lat="48.595728330" lon="2.436308450"><ele></ele><time>2013-8-28T16:42:51Z</time></trkpt>
<trkpt lat="48.595806780" lon="2.436370140"><ele></ele><time>2013-8-28T16:42:54Z</time></trkpt>
<trkpt lat="48.595868470" lon="2.436433340"><ele></ele><time>2013-8-28T16:42:57Z</time></trkpt>
<trkpt lat="48.595910050" lon="2.436458480"><ele></ele><time>2013-8-28T16:43:0Z</time></trkpt>
<trkpt lat="48.595955140" lon="2.436490000"><ele></ele><time>2013-8-28T16:43:3Z</time></trkpt>
<trkpt lat="48.596008450" lon="2.436520010"><ele></ele><time>2013-8-28T16:43:6Z</time></trkpt>
<trkpt lat="48.596058410" lon="2.436543470"><ele></ele><time>2013-8-28T16:43:9Z</time></trkpt>
<trkpt lat="48.596106690" lon="2.436566780"><ele></ele><time>2013-8-28T16:43:12Z</time></trkpt>
<trkpt lat="48.596158490" lon="2.436588400"><ele></ele><time>2013-8-28T16:43:15Z</time></trkpt>
<trkpt lat="48.596208440" lon="2.436606670"><ele></ele><time>2013-8-28T16:43:18Z</time></trkpt>
<trkpt lat="48.596256720" lon="2.436626790"><ele></ele><time>2013-8-28T16:43:21Z</time></trkpt>
<trkpt lat="48.596341720" lon="2.436668360"><ele></ele><time>2013-8-28T16:43:24Z</time></trkpt>
<trkpt lat="48.596385130" lon="2.436688480"><ele></ele><time>2013-8-28T16:43:27Z</time></trkpt>
<trkpt lat="48.596430060" lon="2.436703400"><ele></ele><time>2013-8-28T16:43:30Z</time></trkpt>
<trkpt lat="48.596478340" lon="2.436718490"><ele></ele><time>2013-8-28T16:43:33Z</time></trkpt>
<trkpt lat="48.596523440" lon="2.436731730"><ele></ele><time>2013-8-28T16:43:36Z</time></trkpt>
<trkpt lat="48.596568360" lon="2.436745140"><ele></ele><time>2013-8-28T16:43:39Z</time></trkpt>
<trkpt lat="48.596656710" lon="2.436770120"><ele></ele><time>2013-8-28T16:43:42Z</time></trkpt>
<trkpt lat="48.596743380" lon="2.436793420"><ele></ele><time>2013-8-28T16:43:45Z</time></trkpt>
<trkpt lat="48.596831720" lon="2.436813370"><ele></ele><time>2013-8-28T16:43:48Z</time></trkpt>
<trkpt lat="48.596918390" lon="2.436823430"><ele></ele><time>2013-8-28T16:43:51Z</time></trkpt>
<trkpt lat="48.597003380" lon="2.436841700"><ele></ele><time>2013-8-28T16:43:54Z</time></trkpt>
<trkpt lat="48.597053340" lon="2.436845060"><ele></ele><time>2013-8-28T16:43:57Z</time></trkpt>
<trkpt lat="48.597103460" lon="2.436843380"><ele></ele><time>2013-8-28T16:44:0Z</time></trkpt>
<trkpt lat="48.597163480" lon="2.436840030"><ele></ele><time>2013-8-28T16:44:3Z</time></trkpt>
<trkpt lat="48.597218460" lon="2.436838350"><ele></ele><time>2013-8-28T16:44:6Z</time></trkpt>
<trkpt lat="48.597275130" lon="2.436838350"><ele></ele><time>2013-8-28T16:44:9Z</time></trkpt>
<trkpt lat="48.597335140" lon="2.436833490"><ele></ele><time>2013-8-28T16:44:12Z</time></trkpt>
<trkpt lat="48.597405040" lon="2.436826780"><ele></ele><time>2013-8-28T16:44:15Z</time></trkpt>
<trkpt lat="48.597455000" lon="2.436825110"><ele></ele><time>2013-8-28T16:44:18Z</time></trkpt>
<trkpt lat="48.597505120" lon="2.436823430"><ele></ele><time>2013-8-28T16:44:21Z</time></trkpt>
<trkpt lat="48.597551730" lon="2.436821750"><ele></ele><time>2013-8-28T16:44:24Z</time></trkpt>
<trkpt lat="48.597601680" lon="2.436815050"><ele></ele><time>2013-8-28T16:44:27Z</time></trkpt>
<trkpt lat="48.597648460" lon="2.436808340"><ele></ele><time>2013-8-28T16:44:30Z</time></trkpt>
<trkpt lat="48.597733450" lon="2.436800130"><ele></ele><time>2013-8-28T16:44:33Z</time></trkpt>
<trkpt lat="48.597815090" lon="2.436793420"><ele></ele><time>2013-8-28T16:44:36Z</time></trkpt>
<trkpt lat="48.597896730" lon="2.436781690"><ele></ele><time>2013-8-28T16:44:39Z</time></trkpt>
<trkpt lat="48.597985070" lon="2.436765090"><ele></ele><time>2013-8-28T16:44:42Z</time></trkpt>
<trkpt lat="48.598030000" lon="2.436756710"><ele></ele><time>2013-8-28T16:44:45Z</time></trkpt>
<trkpt lat="48.598076770" lon="2.436741790"><ele></ele><time>2013-8-28T16:44:48Z</time></trkpt>
<trkpt lat="48.598123370" lon="2.436725030"><ele></ele><time>2013-8-28T16:44:51Z</time></trkpt>
<trkpt lat="48.598170150" lon="2.436711780"><ele></ele><time>2013-8-28T16:44:54Z</time></trkpt>
<trkpt lat="48.598218420" lon="2.436695020"><ele></ele><time>2013-8-28T16:44:57Z</time></trkpt>
<trkpt lat="48.598266700" lon="2.436676750"><ele></ele><time>2013-8-28T16:45:0Z</time></trkpt>
<trkpt lat="48.598313480" lon="2.436656800"><ele></ele><time>2013-8-28T16:45:3Z</time></trkpt>
<trkpt lat="48.598363430" lon="2.436635000"><ele></ele><time>2013-8-28T16:45:6Z</time></trkpt>
<trkpt lat="48.598415060" lon="2.436611700"><ele></ele><time>2013-8-28T16:45:9Z</time></trkpt>
<trkpt lat="48.598466700" lon="2.436591750"><ele></ele><time>2013-8-28T16:45:12Z</time></trkpt>
<trkpt lat="48.598516820" lon="2.436573480"><ele></ele><time>2013-8-28T16:45:15Z</time></trkpt>
<trkpt lat="48.598566780" lon="2.436550010"><ele></ele><time>2013-8-28T16:45:18Z</time></trkpt>
<trkpt lat="48.598616730" lon="2.436525030"><ele></ele><time>2013-8-28T16:45:21Z</time></trkpt>
<trkpt lat="48.598661830" lon="2.436501730"><ele></ele><time>2013-8-28T16:45:24Z</time></trkpt>
<trkpt lat="48.598708430" lon="2.436475080"><ele></ele><time>2013-8-28T16:45:27Z</time></trkpt>
<trkpt lat="48.598751680" lon="2.436446750"><ele></ele><time>2013-8-28T16:45:30Z</time></trkpt>
<trkpt lat="48.598798450" lon="2.436418420"><ele></ele><time>2013-8-28T16:45:33Z</time></trkpt>
<trkpt lat="48.598840030" lon="2.436385060"><ele></ele><time>2013-8-28T16:45:36Z</time></trkpt>
<trkpt lat="48.598886800" lon="2.436351700"><ele></ele><time>2013-8-28T16:45:39Z</time></trkpt>
<trkpt lat="48.598930050" lon="2.436321690"><ele></ele><time>2013-8-28T16:45:42Z</time></trkpt>
<trkpt lat="48.598976820" lon="2.436293360"><ele></ele><time>2013-8-28T16:45:45Z</time></trkpt>
<trkpt lat="48.599020070" lon="2.436266700"><ele></ele><time>2013-8-28T16:45:48Z</time></trkpt>
<trkpt lat="48.599066670" lon="2.436233340"><ele></ele><time>2013-8-28T16:45:51Z</time></trkpt>
<trkpt lat="48.599110090" lon="2.436201830"><ele></ele><time>2013-8-28T16:45:54Z</time></trkpt>
<trkpt lat="48.599155020" lon="2.436173330"><ele></ele><time>2013-8-28T16:45:57Z</time></trkpt>
<trkpt lat="48.599201790" lon="2.436143490"><ele></ele><time>2013-8-28T16:46:0Z</time></trkpt>
<trkpt lat="48.599246720" lon="2.436113480"><ele></ele><time>2013-8-28T16:46:3Z</time></trkpt>
<trkpt lat="48.599290130" lon="2.436080120"><ele></ele><time>2013-8-28T16:46:6Z</time></trkpt>
<trkpt lat="48.599326680" lon="2.436038380"><ele></ele><time>2013-8-28T16:46:9Z</time></trkpt>
<trkpt lat="48.599358360" lon="2.435990100"><ele></ele><time>2013-8-28T16:46:12Z</time></trkpt>
<trkpt lat="48.599388370" lon="2.435935120"><ele></ele><time>2013-8-28T16:46:15Z</time></trkpt>
<trkpt lat="48.599421730" lon="2.435878450"><ele></ele><time>2013-8-28T16:46:18Z</time></trkpt>
<trkpt lat="48.599453410" lon="2.435820120"><ele></ele><time>2013-8-28T16:46:21Z</time></trkpt>
<trkpt lat="48.599490130" lon="2.435760100"><ele></ele><time>2013-8-28T16:46:24Z</time></trkpt>
<trkpt lat="48.599523490" lon="2.435700090"><ele></ele><time>2013-8-28T16:46:27Z</time></trkpt>
<trkpt lat="48.599556680" lon="2.435638400"><ele></ele><time>2013-8-28T16:46:30Z</time></trkpt>
<trkpt lat="48.599590040" lon="2.435581730"><ele></ele><time>2013-8-28T16:46:33Z</time></trkpt>
<trkpt lat="48.599638490" lon="2.435486680"><ele></ele><time>2013-8-28T16:46:36Z</time></trkpt>
<trkpt lat="48.599693470" lon="2.435416780"><ele></ele><time>2013-8-28T16:46:39Z</time></trkpt>
<trkpt lat="48.599761700" lon="2.435381740"><ele></ele><time>2013-8-28T16:46:42Z</time></trkpt>
<trkpt lat="48.599815010" lon="2.435330110"><ele></ele><time>2013-8-28T16:46:45Z</time></trkpt>
<trkpt lat="48.599840160" lon="2.435216790"><ele></ele><time>2013-8-28T16:46:48Z</time></trkpt>
<trkpt lat="48.599840160" lon="2.435143360"><ele></ele><time>2013-8-28T16:46:51Z</time></trkpt>
<trkpt lat="48.599836800" lon="2.435065070"><ele></ele><time>2013-8-28T16:46:54Z</time></trkpt>
<trkpt lat="48.599838480" lon="2.434981760"><ele></ele><time>2013-8-28T16:46:57Z</time></trkpt>
<trkpt lat="48.599831770" lon="2.434901800"><ele></ele><time>2013-8-28T16:47:0Z</time></trkpt>
<trkpt lat="48.599826740" lon="2.434818480"><ele></ele><time>2013-8-28T16:47:3Z</time></trkpt>
<trkpt lat="48.599821720" lon="2.434740020"><ele></ele><time>2013-8-28T16:47:6Z</time></trkpt>
<trkpt lat="48.599816690" lon="2.434663410"><ele></ele><time>2013-8-28T16:47:9Z</time></trkpt>
<trkpt lat="48.599806800" lon="2.434581770"><ele></ele><time>2013-8-28T16:47:12Z</time></trkpt>
<trkpt lat="48.599796740" lon="2.434503490"><ele></ele><time>2013-8-28T16:47:15Z</time></trkpt>
<trkpt lat="48.599785000" lon="2.434423360"><ele></ele><time>2013-8-28T16:47:18Z</time></trkpt>
<trkpt lat="48.599773440" lon="2.434345070"><ele></ele><time>2013-8-28T16:47:21Z</time></trkpt>
<trkpt lat="48.599760020" lon="2.434268460"><ele></ele><time>2013-8-28T16:47:24Z</time></trkpt>
<trkpt lat="48.599746780" lon="2.434193360"><ele></ele><time>2013-8-28T16:47:27Z</time></trkpt>
<trkpt lat="48.599733370" lon="2.434118420"><ele></ele><time>2013-8-28T16:47:30Z</time></trkpt>
<trkpt lat="48.599713420" lon="2.433986830"><ele></ele><time>2013-8-28T16:47:33Z</time></trkpt>
<trkpt lat="48.599691800" lon="2.433855060"><ele></ele><time>2013-8-28T16:47:36Z</time></trkpt>
<trkpt lat="48.599678380" lon="2.433788340"><ele></ele><time>2013-8-28T16:47:39Z</time></trkpt>
<trkpt lat="48.599668490" lon="2.433656750"><ele></ele><time>2013-8-28T16:47:42Z</time></trkpt>
<trkpt lat="48.599726660" lon="2.433556670"><ele></ele><time>2013-8-28T16:47:45Z</time></trkpt>
<trkpt lat="48.599773440" lon="2.433528340"><ele></ele><time>2013-8-28T16:47:48Z</time></trkpt>
<trkpt lat="48.599821720" lon="2.433503360"><ele></ele><time>2013-8-28T16:47:51Z</time></trkpt>
<trkpt lat="48.599900000" lon="2.433461780"><ele></ele><time>2013-8-28T16:47:54Z</time></trkpt>
<trkpt lat="48.599961690" lon="2.433430100"><ele></ele><time>2013-8-28T16:47:57Z</time></trkpt>
<trkpt lat="48.600036790" lon="2.433395060"><ele></ele><time>2013-8-28T16:48:0Z</time></trkpt>
<trkpt lat="48.600120110" lon="2.433355000"><ele></ele><time>2013-8-28T16:48:3Z</time></trkpt>
<trkpt lat="48.600165040" lon="2.433330020"><ele></ele><time>2013-8-28T16:48:6Z</time></trkpt>
<trkpt lat="48.600243490" lon="2.433288450"><ele></ele><time>2013-8-28T16:48:9Z</time></trkpt>
<trkpt lat="48.600298480" lon="2.433258440"><ele></ele><time>2013-8-28T16:48:12Z</time></trkpt>
<trkpt lat="48.600361680" lon="2.433221730"><ele></ele><time>2013-8-28T16:48:15Z</time></trkpt>
<trkpt lat="48.600431750" lon="2.433181830"><ele></ele><time>2013-8-28T16:48:18Z</time></trkpt>
<trkpt lat="48.600501820" lon="2.433138410"><ele></ele><time>2013-8-28T16:48:21Z</time></trkpt>
<trkpt lat="48.600576760" lon="2.433105050"><ele></ele><time>2013-8-28T16:48:24Z</time></trkpt>
<trkpt lat="48.600651690" lon="2.433068340"><ele></ele><time>2013-8-28T16:48:27Z</time></trkpt>
<trkpt lat="48.600726790" lon="2.433108400"><ele></ele><time>2013-8-28T16:48:30Z</time></trkpt>
<trkpt lat="48.600726790" lon="2.433108400"><ele></ele><time>2013-8-28T16:48:33Z</time></trkpt>
<trkpt lat="48.600726790" lon="2.433108400"><ele></ele><time>2013-8-28T16:48:36Z</time></trkpt>
<trkpt lat="48.600726790" lon="2.433108400"><ele></ele><time>2013-8-28T16:48:39Z</time></trkpt>
</trkseg></trk></gpx>